ADDS METAR Data INFO
IDs: Format: Raw Decoded Include TAF

Data at: 0109 UTC 21 Oct 2017

KHHV 210055Z AUTO 12009KT 10SM FEW034 27/22 A2994 RMK A01
KHHV 210035Z AUTO 12009KT 10SM CLR 27/21 A2993 RMK A01
KHHV 210015Z AUTO 11012KT 10SM FEW017 FEW022 SCT035 27/21 A2993 RMK A01
KHHV 202355Z AUTO 11014KT 10SM CLR 27/21 A2993 RMK A01
KHHV 202335Z AUTO 11013KT 10SM FEW025 FEW030 SCT036 28/22 A2994 RMK A01
KHHV 202315Z AUTO 12013G20KT 9SM SCT025 BKN030 BKN036 29/23 A2994 RMK A01
KHHV 202255Z AUTO VRB05KT 10SM CLR 30/22 A2994 RMK A01
KHHV 202235Z AUTO 13006KT 10SM SCT100 31/22 A2993 RMK A01
KHHV 202215Z AUTO 13005KT 10SM BKN100 30/22 A2992 RMK A01
KHHV 202155Z AUTO VRB06G11KT 10SM FEW110 29/23 A2993 RMK A01
KHHV 202135Z AUTO 18008KT 10SM CLR 30/23 A2993 RMK A01
KHHV 202115Z AUTO 18010KT 10SM FEW080 29/23 A2993 RMK A01
KHHV 202055Z AUTO 16008G15KT 10SM FEW017 FEW022 SCT033 29/23 A2993 RMK A01
KHHV 202035Z AUTO 16014G19KT 10SM FEW018 SCT026 28/24 A2993 RMK A01
KHHV 202015Z AUTO 17008G13KT 10SM SCT019 SCT025 BKN041 29/24 A2994 RMK A01
KHHV 201955Z AUTO 16010KT 10SM SCT017 BKN022 BKN028 29/24 A2995 RMK A01
KHHV 191915Z AUTO 10013G19KT 5SM HZ FEW047 FEW055 SCT065 28/23 A3004 RMK A01
KHHV 191855Z AUTO 10019KT 10SM FEW020 FEW046 BKN065 28/23 A3004 RMK A01
KHHV 191835Z AUTO 10015KT SCT060 BKN070 28/22 A3005 RMK A01
KHHV 191815Z AUTO 12013KT 10SM FEW065 BKN075 28/22 A3006 RMK A01
KHHV 191755Z AUTO 13010G18KT 110V170 10SM FEW021 FEW055 BKN080 28/22 A3006 RMK A01
KHHV 191735Z AUTO 12016G22KT 10SM SCT017 BKN023 BKN055 29/22 A3007 RMK A01
KHHV 191715Z AUTO 10019KT 9SM FEW016 SCT070 31/23 A3007 RMK A01
KHHV 191655Z AUTO 09017KT 10SM FEW046 FEW065 29/23 A3008 RMK A01
KHHV 191635Z AUTO 11021G27KT 9SM FEW043 SCT055 SCT085 27/23 A3008 RMK A01
KHHV 191615Z AUTO 11027KT 10SM FEW015 SCT020 BKN060 28/23 A3008 RMK A01
KHHV 191555Z AUTO 09025KT 10SM FEW015 SCT019 BKN070 30/23 A3008 RMK A01
KHHV 191535Z AUTO 09013KT 10SM FEW016 SCT033 BKN075 29/24 A3009 RMK A01
KHHV 191515Z AUTO 10014KT 10SM FEW017 28/23 A3008 RMK A01
KHHV 191455Z AUTO 11014KT 10SM FEW049 27/23 A3008 RMK A01
KHHV 191435Z AUTO 12012KT 10SM BKN049 BKN085 BKN120 27/22 A3008 RMK A01
KHHV 191415Z AUTO 12010G16KT 10SM FEW060 SCT075 BKN120 26/21 A3007 RMK A01
KHHV 191350Z AUTO 10011KT 10SM FEW033 FEW050 BKN065 25/23 A3006 RMK A01
KHHV 191335Z AUTO 10009G17KT 5SM BR FEW034 FEW045 SCT050 24/23 A3005 RMK A01
KHHV 191315Z AUTO 13011G17KT 100V160 3SM BR FEW009 SCT025 BKN040 23/22 A3005 RMK A01
KHHV 191255Z AUTO 13013G21KT 080V220 2SM BR SCT007 BKN025 OVC040 24/24 A3005 RMK A01
KHHV 191235Z AUTO 11006KT 3SM BR SCT005 BKN029 OVC050 24/24 A3005 RMK A01
KHHV 191215Z AUTO 14010G15KT 2SM BR BKN005 BKN023 OVC033 24/23 A3005 RMK A01
KHHV 191155Z AUTO 16012G19KT 130V190 8SM SCT022 BKN055 OVC095 25/22 A3004 RMK A01
KHHV 191135Z AUTO 18012G18KT 8SM SCT035 BKN044 OVC060 25/22 A3004 RMK A01
KHHV 191115Z AUTO 15012G18KT 10SM SCT022 BKN035 OVC041 25/22 A3004 RMK A01
KHHV 191055Z AUTO 15015KT 8SM FEW014 BKN020 OVC042 25/22 A3004 RMK A01
KHHV 191035Z AUTO 14014G20KT 9SM FEW018 SCT022 BKN030 27/23 A3004 RMK A01
KHHV 191005Z AUTO 10020KT 10SM FEW028 SCT037 BKN047 28/21 A3004 RMK A01
KHHV 190955Z AUTO 10020KT 10SM FEW029 SCT039 BKN047 28/21 A3004 RMK A01
KHHV 190930Z AUTO 10020KT 10SM FEW028 SCT036 BKN047 28/21 A3004 RMK A01
KHHV 190915Z AUTO 10022KT 10SM FEW028 SCT036 BKN048 28/21 A3004 RMK A01
KHHV 190855Z AUTO 10021KT 10SM FEW028 SCT033 OVC090 29/21 A3004 RMK A01
KHHV 190835Z AUTO 10021KT 10SM FEW026 SCT033 OVC090 29/21 A3004 RMK A01
KHHV 190815Z AUTO 09021KT 10SM FEW026 SCT034 OVC090 30/21 A3004 RMK A01
KHHV 190755Z AUTO 09020KT 10SM SCT027 BKN043 OVC095 30/22 A3005 RMK A01
KHHV 190735Z AUTO 09019KT 10SM FEW026 SCT035 OVC100 29/21 A3005 RMK A01
KHHV 190715Z AUTO 09018G23KT 10SM FEW027 SCT038 BKN095 29/21 A3005 RMK A01
KHHV 190655Z AUTO 09019KT 10SM FEW026 SCT032 BKN038 30/21 A3006 RMK A01
KHHV 190635Z AUTO 09018KT 10SM SCT029 BKN036 BKN080 29/21 A3006 RMK A01
KHHV 190615Z AUTO 09016KT 10SM FEW028 SCT070 BKN085 29/21 A3007 RMK A01
KHHV 190555Z AUTO 09017KT 10SM FEW029 SCT035 BKN085 29/21 A3007 RMK A01
KHHV 190535Z AUTO 09017KT 10SM SCT029 BKN035 29/21 A3008 RMK A01
KHHV 190515Z AUTO 08018G23KT 10SM SCT031 SCT036 29/21 A3008 RMK A01
KHHV 190455Z AUTO 09018KT 10SM FEW031 29/20 A3009 RMK A01
KHHV 190435Z AUTO 08018KT 10SM CLR 29/20 A3009 RMK A01
KHHV 190415Z AUTO 09018KT 10SM FEW031 29/20 A3010 RMK A01
KHHV 190355Z AUTO 10019KT 10SM FEW031 29/20 A3009 RMK A01
KHHV 190335Z AUTO 08018KT 10SM FEW028 FEW033 28/21 A3010 RMK A01
KHHV 190315Z AUTO 08018KT 10SM CLR 29/21 A3010 RMK A01
KHHV 190255Z AUTO 09018KT 10SM CLR 29/20 A3010 RMK A01
KHHV 190235Z AUTO 08017KT 10SM CLR 29/19 A3009 RMK A01
KHHV 190215Z AUTO 08017KT 10SM CLR 29/20 A3009 RMK A01
KHHV 190155Z AUTO 08017KT 10SM CLR 29/20 A3009 RMK A01
KHHV 190135Z AUTO 08017KT 10SM FEW030 29/20 A3008 RMK A01
KHHV 190115Z AUTO 08018KT 10SM FEW030 FEW039 FEW045 29/20 A3008 RMK A01
KHHV 190055Z AUTO 09017KT 10SM SCT029 BKN039 BKN045 29/20 A3008 RMK A01
KHHV 190035Z AUTO 08015KT 10SM FEW030 FEW041 28/20 A3008 RMK A01
KHHV 190015Z AUTO 06014KT 10SM FEW028 SCT033 SCT041 28/21 A3008 RMK A01
KHHV 182355Z AUTO 06013KT 10SM FEW027 FEW036 28/21 A3007 RMK A01
KHHV 182335Z AUTO 07012KT 10SM FEW029 FEW035 29/20 A3007 RMK A01
KHHV 182315Z AUTO 06012KT 10SM SCT029 SCT036 29/21 A3007 RMK A01
KHHV 182255Z AUTO 05012KT 10SM SCT028 SCT037 29/21 A3007 RMK A01
KHHV 182235Z AUTO 05012KT 10SM SCT028 BKN034 BKN043 31/21 A3007 RMK A01
KHHV 182215Z AUTO 05011KT 10SM BKN033 BKN043 31/20 A3007 RMK A01
KHHV 182155Z AUTO 06010KT 10SM BKN031 BKN037 31/20 A3008 RMK A01
KHHV 182135Z AUTO 06010KT 10SM SCT030 31/20 A3008 RMK A01
KHHV 182115Z AUTO 06011KT 10SM FEW030 31/20 A3008 RMK A01
KHHV 182055Z AUTO 05010KT 10SM CLR 32/20 A3008 RMK A01
KHHV 182035Z AUTO 05008KT 10SM CLR 31/19 A3008 RMK A01
KHHV 182015Z AUTO 05010KT 10SM SCT040 30/19 A3008 RMK A01
KHHV 181955Z AUTO 05010KT 10SM BKN039 31/19 A3008 RMK A01
KHHV 181935Z AUTO 06009KT 10SM BKN039 32/19 A3009 RMK A01
KHHV 181915Z AUTO 06011KT 10SM BKN039 32/19 A3010 RMK A01
KHHV 181855Z AUTO 06010KT 10SM BKN039 33/19 A3011 RMK A01
KHHV 181835Z AUTO 07010KT 10SM BKN038 33/19 A3012 RMK A01
KHHV 181815Z AUTO 07007KT 10SM SCT036 33/19 A3013 RMK A01
KHHV 181755Z AUTO 05008KT 10SM FEW036 33/19 A3013 RMK A01
KHHV 181735Z AUTO 06009KT 10SM BKN037 31/18 A3013 RMK A01
KHHV 181715Z AUTO 07006KT FEW037 32/18 A3014 RMK A01
KHHV 181655Z AUTO 06006KT 10SM CLR 32/18 A3014 RMK A01
KHHV 181635Z AUTO 06007KT 10SM CLR 31/17 A3014 RMK A01
KHHV 181615Z AUTO 06006KT 10SM CLR 30/17 A3015 RMK A01
KHHV 181555Z AUTO 08007KT 10SM FEW039 30/17 A3015 RMK A01
KHHV 181535Z AUTO 06008KT 10SM SCT039 29/17 A3015 RMK A01
KHHV 181515Z AUTO 07008KT 10SM OVC039 28/17 A3015 RMK A01
KHHV 181455Z AUTO 08007KT 10SM BKN039 28/17 A3015 RMK A01
KHHV 181435Z AUTO 07008KT 10SM OVC038 27/17 A3014 RMK A01
KHHV 181415Z AUTO 07007KT 10SM BKN038 27/17 A3014 RMK A01
KHHV 181355Z AUTO 02004KT 10SM BKN037 26/17 A3013 RMK A01
KHHV 181335Z AUTO 07007KT 10SM BKN039 26/17 A3012 RMK A01
KHHV 181315Z AUTO 08009KT 10SM BKN038 27/17 A3012 RMK A01
KHHV 181255Z AUTO 11006KT 10SM BKN036 27/17 A3012 RMK A01
KHHV 181235Z AUTO 09008G14KT 10SM BKN035 26/17 A3011 RMK A01
KHHV 181215Z AUTO 09006G12KT 10SM BKN034 26/17 A3011 RMK A01
KHHV 181155Z AUTO 08013KT 10SM OVC034 26/17 A3010 RMK A01
KHHV 181135Z AUTO 06010KT 10SM OVC035 26/17 A3010 RMK A01
KHHV 181115Z AUTO 08011KT 10SM BKN035 25/17 A3010 RMK A01
KHHV 181055Z AUTO 11012KT 10SM BKN034 26/17 A3010 RMK A01
KHHV 181035Z AUTO 09008KT 10SM FEW034 26/17 A3010 RMK A01
KHHV 181015Z AUTO 08010KT 10SM BKN034 26/17 A3010 RMK A01
KHHV 180955Z AUTO 08011KT 10SM OVC034 27/17 A3010 RMK A01
KHHV 180935Z AUTO 09010KT 10SM BKN034 26/17 A3009 RMK A01
KHHV 180915Z AUTO 08011KT 10SM BKN034 26/17 A3010 RMK A01
KHHV 180855Z AUTO 08012KT 10SM OVC033 26/17 A3010 RMK A01
KHHV 180835Z AUTO 08011KT 10SM OVC033 26/17 A3010 RMK A01
KHHV 180815Z AUTO 08013KT 10SM BKN033 26/17 A3011 RMK A01
KHHV 180755Z AUTO 09010KT 10SM BKN033 26/17 A3011 RMK A01
KHHV 180735Z AUTO 08010G16KT 10SM BKN032 26/17 A3011 RMK A01
KHHV 180715Z AUTO 09013G18KT 10SM BKN032 26/17 A3012 RMK A01
KHHV 180655Z AUTO 08014KT 10SM BKN031 26/17 A3011 RMK A01
KHHV 180635Z AUTO 08015KT 10SM BKN031 26/17 A3011 RMK A01
KHHV 180615Z AUTO 08013KT 10SM BKN031 25/17 A3012 RMK A01
KHHV 180555Z AUTO 08015KT 10SM BKN031 25/17 A3012 RMK A01
KHHV 180535Z AUTO 07014KT 10SM BKN032 25/16 A3013 RMK A01
KHHV 180515Z AUTO 06015KT 10SM BKN033 25/16 A3013 RMK A01
KHHV 180455Z AUTO 08015KT 10SM BKN034 25/16 A3014 RMK A01
KHHV 180435Z AUTO 07015KT 10SM SCT034 25/15 A3014 RMK A01
KHHV 180415Z AUTO 06015KT 10SM FEW034 25/15 A3014 RMK A01
KHHV 180355Z AUTO 06014KT 10SM CLR 25/15 A3014 RMK A01
KHHV 180335Z AUTO 06013KT 10SM FEW032 25/15 A3014 RMK A01
KHHV 180315Z AUTO 06013KT 10SM FEW030 25/16 A3015 RMK A01
KHHV 180255Z AUTO 05013KT 10SM SCT030 25/16 A3015 RMK A01
KHHV 180235Z AUTO 05012KT 10SM FEW032 25/16 A3015 RMK A01
KHHV 180215Z AUTO 05015KT 10SM FEW032 25/16 A3014 RMK A01
KHHV 180155Z AUTO 04013KT 10SM FEW032 25/16 A3014 RMK A01
KHHV 180135Z AUTO 06014KT 10SM FEW035 25/15 A3013 RMK A01
KHHV 180115Z AUTO 05014KT 10SM SCT034 25/15 A3013 RMK A01
KHHV 180055Z AUTO 06016KT 10SM SCT035 25/15 A3012 RMK A01
KHHV 180035Z AUTO 04015KT 10SM FEW036 25/15 A3012 RMK A01
KHHV 180015Z AUTO 05016KT 10SM FEW038 25/15 A3012 RMK A01
KHHV 172355Z AUTO 05016KT 10SM CLR 25/15 A3012 RMK A01
KHHV 172335Z AUTO 05015G20KT 10SM FEW039 26/15 A3011 RMK A01
KHHV 172315Z AUTO 05016G21KT 10SM FEW039 27/16 A3011 RMK A01
KHHV 172255Z AUTO 05016G21KT 10SM FEW037 27/15 A3011 RMK A01
KHHV 172235Z AUTO 04015KT 10SM FEW034 27/16 A3011 RMK A01
KHHV 172215Z AUTO 04013G19KT 10SM SCT033 27/17 A3011 RMK A01
KHHV 172155Z AUTO 05013KT 10SM BKN032 28/17 A3011 RMK A01
KHHV 172135Z AUTO 05015KT 10SM BKN033 28/17 A3011 RMK A01
KHHV 172115Z AUTO 05016KT 10SM BKN032 28/17 A3010 RMK A01
KHHV 172055Z AUTO 05016KT 10SM BKN032 29/17 A3010 RMK A01
KHHV 171940Z AUTO 04015KT 10SM BKN032 28/17 A3012 RMK A01
KHHV 171935Z AUTO 04015KT 10SM BKN032 28/17 A3012 RMK A01
KHHV 171915Z AUTO 03012G18KT 10SM BKN032 28/17 A3013 RMK A01
KHHV 171855Z AUTO 05014KT 10SM FEW032 29/17 A3014 RMK A01
KHHV 171835Z AUTO 04014KT 10SM BKN032 29/17 A3014 RMK A01
KHHV 171755Z AUTO 03011KT 10SM SCT032 29/17 A3017 RMK A01
KHHV 171735Z AUTO 04013KT 10SM FEW032 30/17 A3017 RMK A01
KHHV 171715Z AUTO 05014KT 10SM FEW033 30/16 A3018 RMK A01
KHHV 171655Z AUTO 04013KT 10SM FEW033 29/16 A3019 RMK A01
KHHV 171635Z AUTO 04013KT 10SM FEW033 29/17 A3019 RMK A01
KHHV 171615Z AUTO 05015KT 10SM FEW034 29/16 A3019 RMK A01
KHHV 171555Z AUTO 04014KT 10SM SCT035 28/16 A3019 RMK A01
KHHV 171505Z AUTO 05012KT 10SM SCT037 26/16 A3019 RMK A01
KHHV 171455Z AUTO 05012G18KT 10SM SCT036 26/16 A3019 RMK A01
KHHV 171435Z AUTO 06013KT 10SM BKN036 26/16 A3019 RMK A01
KHHV 171415Z AUTO 05014KT 10SM SCT036 26/16 A3018 RMK A01
KHHV 171355Z AUTO 04014G19KT 6SM HZ BKN037 25/16 A3017 RMK A01
KHHV 171335Z AUTO 06015KT 10SM OVC036 25/16 A3017 RMK A01
KHHV 171315Z AUTO 05014G19KT 10SM BKN036 25/16 A3016 RMK A01
KHHV 171255Z AUTO 05013G19KT 10SM BKN037 25/16 A3016 RMK A01
KHHV 171235Z AUTO 04013G19KT 10SM BKN036 25/16 A3015 RMK A01
KHHV 171215Z AUTO 05015KT 10SM BKN038 25/16 A3015 RMK A01
KHHV 171155Z AUTO 05014KT 10SM BKN037 BKN043 25/15 A3014 RMK A01
KHHV 171135Z AUTO 05016KT 10SM SCT038 25/15 A3014 RMK A01
KHHV 171115Z AUTO 05017KT 10SM BKN039 25/15 A3013 RMK A01
KHHV 171055Z AUTO 06017KT 10SM BKN039 25/16 A3013 RMK A01
KHHV 171035Z AUTO 06016G21KT 10SM BKN040 25/15 A3013 RMK A01
KHHV 171015Z AUTO 05015G20KT 10SM SCT038 25/15 A3013 RMK A01
KHHV 170955Z AUTO 05018KT 10SM SCT039 25/15 A3012 RMK A01
KHHV 170935Z AUTO 04017KT 10SM SCT041 25/15 A3012 RMK A01
KHHV 170915Z AUTO 04017KT 10SM SCT040 25/15 A3011 RMK A01
KHHV 170855Z AUTO 05016G21KT 10SM FEW040 25/14 A3011 RMK A01
KHHV 170835Z AUTO 05020KT 10SM SCT038 25/14 A3011 RMK A01
KHHV 170815Z AUTO 05018KT 10SM BKN037 25/15 A3012 RMK A01
KHHV 170755Z AUTO 05020KT 10SM BKN037 25/15 A3012 RMK A01
KHHV 170735Z AUTO 05018KT 10SM BKN038 25/15 A3013 RMK A01
KHHV 170710Z AUTO 04018G24KT 10SM BKN035 25/15 A3013 RMK A01
KHHV 170655Z AUTO 05019KT 10SM BKN034 BKN039 25/15 A3012 RMK A01
KHHV 170635Z AUTO 05021KT 10SM BKN035 25/15 A3013 RMK A01
KHHV 170615Z AUTO 04018G23KT 10SM SCT034 SCT039 25/15 A3013 RMK A01
KHHV 170555Z AUTO 05021KT 10SM SCT036 25/15 A3014 RMK A01
KHHV 170535Z AUTO 05021G27KT 10SM BKN035 BKN040 25/15 A3014 RMK A01
KHHV 170515Z AUTO 04020G26KT 10SM BKN036 BKN041 25/15 A3015 RMK A01
KHHV 170455Z AUTO 05023KT 10SM BKN037 25/15 A3015 RMK A01
KHHV 170435Z AUTO 04021G27KT 10SM BKN037 BKN043 26/15 A3016 RMK A01
KHHV 170415Z AUTO 04023KT 10SM BKN037 26/16 A3016 RMK A01
KHHV 170355Z AUTO 04024KT 10SM BKN038 26/16 A3016 RMK A01
KHHV 170335Z AUTO 04023KT 10SM OVC037 25/16 A3016 RMK A01
KHHV 170315Z AUTO 03020G26KT 10SM SCT031 OVC037 25/17 A3016 RMK A01
KHHV 170255Z AUTO 04024G30KT 10SM OVC032 25/17 A3016 RMK A01
KHHV 170235Z AUTO 05024KT 10SM BKN032 BKN038 25/16 A3016 RMK A01
KHHV 170215Z AUTO 03021G28KT 10SM SCT030 OVC036 25/17 A3015 RMK A01
KHHV 170155Z AUTO 03021G28KT 10SM OVC034 25/17 A3015 RMK A01
KHHV 170135Z AUTO 04025KT 10SM OVC036 25/17 A3014 RMK A01
KHHV 170115Z AUTO 04023G29KT 10SM FEW030 OVC036 25/17 A3014 RMK A01
KHHV 170055Z AUTO 04022G27KT 10SM FEW029 OVC035 25/17 A3013 RMK A01
KHHV 170035Z AUTO 03021G27KT 10SM OVC033 25/18 A3012 RMK A01
KHHV 170005Z AUTO 03024KT 10SM OVC030 25/18 A3011 RMK A01
KHHV 162355Z AUTO 03020G27KT 10SM OVC029 25/18 A3010 RMK A01
KHHV 162335Z AUTO 03022KT 10SM OVC028 25/18 A3009 RMK A01
KHHV 162315Z AUTO 03018G26KT 10SM OVC026 25/19 A3009 RMK A01
KHHV 162255Z AUTO 04022KT 10SM OVC025 25/19 A3008 RMK A01
KHHV 162235Z AUTO 04022KT 10SM OVC023 25/19 A3008 RMK A01
KHHV 162215Z AUTO 04022KT 10SM OVC022 25/20 A3007 RMK A01
KHHV 162155Z AUTO 03019G26KT 10SM OVC021 25/20 A3008 RMK A01
KHHV 162135Z AUTO 02017G24KT 10SM OVC020 25/20 A3008 RMK A01
KHHV 162115Z AUTO 03017G23KT 10SM OVC019 25/20 A3008 RMK A01
KHHV 162055Z AUTO 03019G27KT 10SM OVC019 25/21 A3008 RMK A01
KHHV 162035Z AUTO 02016G23KT 10SM OVC019 25/21 A3007 RMK A01
KHHV 162015Z AUTO 02016G22KT 10SM OVC018 26/21 A3007 RMK A01
KHHV 161955Z AUTO 03019G24KT 10SM OVC017 26/21 A3008 RMK A01
KHHV 161935Z AUTO 02015KT 10SM OVC017 26/21 A3008 RMK A01
KHHV 161915Z AUTO 03016G24KT 10SM OVC017 26/21 A3009 RMK A01
KHHV 161855Z AUTO 04020KT 10SM OVC020 27/22 A3009 RMK A01
KHHV 161835Z AUTO 04021KT 10SM BKN019 26/22 A3010 RMK A01
KHHV 161815Z AUTO 05022KT 9SM BKN018 27/22 A3010 RMK A01
KHHV 161755Z AUTO 05022KT 9SM BKN018 27/22 A3011 RMK A01
KHHV 161735Z AUTO 04021KT 9SM OVC018 27/22 A3012 RMK A01
KHHV 161715Z AUTO 05022KT 10SM BKN018 27/22 A3013 RMK A01
KHHV 161655Z AUTO 05023KT 9SM BKN018 27/22 A3014 RMK A01
KHHV 161625Z AUTO 05024KT 9SM BKN018 27/22 A3014 RMK A01
KHHV 161615Z AUTO 04022G28KT 2 1/2SM HZ BKN017 27/22 A3015 RMK A01
KHHV 161555Z AUTO 04025KT 2 1/2SM HZ BKN018 27/22 A3014 RMK A01
KHHV 161530Z AUTO 04027KT 2 1/2SM HZ OVC017 27/22 A3013 RMK A01
KHHV 161520Z AUTO 04026KT 2 1/2SM HZ OVC017 27/22 A3012 RMK A01
KHHV 161455Z AUTO 04025KT 2 1/2SM HZ BKN018 27/22 A3013 RMK A01
KHHV 161440Z AUTO 04027KT 2 1/2SM HZ BKN017 BKN022 27/22 A3013 RMK A01
KHHV 161415Z AUTO 04027KT 7SM BKN017 OVC022 27/23 A3012 RMK A01
KHHV 161400Z AUTO 05025KT 8SM BKN017 OVC022 27/23 A3011 RMK A01
KHHV 161340Z AUTO 04025KT 7SM SCT017 BKN023 27/23 A3011 RMK A01
KHHV 161315Z AUTO 04026KT 8SM FEW015 FEW024 SCT036 27/23 A3010 RMK A01
KHHV 161300Z AUTO 03022G28KT 8SM FEW016 SCT029 BKN039 27/23 A3010 RMK A01
KHHV 161240Z AUTO 04026KT 9SM FEW019 BKN037 27/23 A3009 RMK A01
KHHV 161220Z AUTO 03026KT 7SM SCT017 27/23 A3008 RMK A01
KHHV 161155Z AUTO 03022G31KT 8SM SCT017 BKN021 BKN030 27/23 A3007 RMK A01
KHHV 161140Z AUTO 03024G30KT 8SM SCT017 SCT022 BKN027 27/23 A3007 RMK A01
KHHV 161120Z AUTO 03024G30KT 7SM FEW016 SCT020 BKN026 27/23 A3005 RMK A01
KHHV 161055Z AUTO 02023G31KT 7SM BKN019 BKN024 OVC029 27/23 A3004 RMK A01
KHHV 161040Z AUTO 02022G30KT 8SM SCT018 BKN023 OVC075 27/23 A3004 RMK A01
KHHV 161020Z AUTO 02021KT 8SM FEW017 SCT022 BKN030 27/23 A3003 RMK A01
KHHV 160955Z AUTO 02022G28KT 9SM SCT017 SCT022 BKN028 27/23 A3003 RMK A01
KHHV 160940Z AUTO 02023KT 7SM BKN017 BKN021 OVC025 27/24 A3002 RMK A01
KHHV 160915Z AUTO 02021KT 8SM SCT015 BKN020 OVC028 27/24 A3000 RMK A01
KHHV 160900Z AUTO 01020G25KT 7SM BKN015 BKN021 OVC028 27/24 A3001 RMK A01
KHHV 160835Z AUTO 01022KT 8SM BKN017 OVC024 27/24 A3001 RMK A01
KHHV 160820Z AUTO 01021KT 7SM BKN018 OVC024 27/24 A3001 RMK A01
KHHV 160755Z AUTO 01020KT 8SM BKN017 BKN024 OVC040 27/24 A3002 RMK A01
KHHV 160740Z AUTO 02021KT 8SM SCT015 BKN021 OVC070 27/24 A3003 RMK A01
KHHV 160715Z AUTO 02020KT 8SM FEW014 BKN021 OVC055 27/24 A3004 RMK A01
KHHV 160700Z AUTO 01022KT 7SM SCT015 BKN040 OVC070 27/24 A3003 RMK A01
KHHV 160635Z AUTO 02020KT 8SM FEW015 SCT021 OVC045 29/25 A3003 RMK A01
KHHV 160620Z AUTO 03015G22KT 10SM FEW022 BKN044 OVC065 29/24 A3004 RMK A01
KHHV 160555Z AUTO 03018G23KT 10SM OVC065 29/24 A3006 RMK A01
KHHV 160540Z AUTO 04023KT 10SM BKN060 29/23 A3005 RMK A01
KHHV 160515Z AUTO 04023KT 10SM FEW060 29/23 A3005 RMK A01
KHHV 160500Z AUTO 04019KT 10SM CLR 29/23 A3005 RMK A01
KHHV 160435Z AUTO 03020KT 10SM FEW021 SCT030 BKN049 29/24 A3006 RMK A01
KHHV 160420Z AUTO 04017G23KT 10SM FEW020 SCT030 BKN046 29/24 A3006 RMK A01
KHHV 160355Z AUTO 03016KT 10SM FEW019 SCT043 BKN075 29/25 A3007 RMK A01
KHHV 160340Z AUTO 03015KT 10SM FEW019 SCT039 BKN110 29/25 A3007 RMK A01
KHHV 160315Z AUTO 05012KT 10SM FEW040 29/24 A3007 RMK A01
KHHV 160300Z AUTO 05017KT 10SM FEW019 FEW031 29/24 A3007 RMK A01
KHHV 160235Z AUTO 05017KT 10SM FEW019 FEW034 28/25 A3005 RMK A01
KHHV 160215Z AUTO 06020KT 10SM FEW034 FEW050 FEW065 28/25 A3003 RMK A01
KHHV 160200Z AUTO 05020KT 10SM FEW050 FEW065 SCT120 28/25 A3004 RMK A01 P0001
KHHV 160135Z AUTO 04014KT 8SM FEW039 SCT050 BKN075 27/24 A3007 RMK A01
KHHV 160120Z AUTO 05014KT 7SM SCT049 BKN075 OVC120 26/25 A3007 RMK A01
KHHV 160055Z AUTO 07005KT 1SM BR SCT008 BKN022 OVC039 26/25 A3007 RMK A01
KHHV 160040Z AUTO 04018KT 1 3/4SM BR SCT013 BKN026 OVC038 27/26 A3006 RMK A01
KHHV 160015Z AUTO 05016KT 3SM BR SCT017 BKN026 OVC043 27/26 A3004 RMK A01
KHHV 160000Z AUTO 04015KT 27/25 A3004 RMK A01 P0007
KHHV 152335Z AUTO 04017KT 4SM BR FEW011 BKN055 OVC120 26/24 A3002 RMK A01
KHHV 152320Z AUTO 03016G27KT 2SM BR FEW010 BKN043 OVC095 26/25 A3002 RMK A01
KHHV 152255Z AUTO 04020KT 5SM BR FEW035 FEW044 SCT049 27/25 A3000 RMK A01
KHHV 152240Z AUTO 06022KT 4SM BR FEW013 SCT018 SCT026 27/25 A3000 RMK A01
KHHV 152220Z AUTO 06021KT 5SM BR FEW011 SCT017 BKN038 27/25 A3000 RMK A01
KHHV 152155Z AUTO 05021KT 8SM FEW046 FEW055 27/25 A2999 RMK A01
KHHV 152140Z AUTO 04020KT 8SM FEW120 27/25 A2999 RMK A01
KHHV 152115Z AUTO 06022KT 4SM BR FEW050 SCT070 BKN090 26/25 A2999 RMK A01
KHHV 152100Z AUTO 06019G26KT 3SM BR FEW013 FEW027 BKN070 26/25 A2999 RMK A01 P0002
KHHV 152035Z AUTO 05021KT 8SM CLR 27/25 A2998 RMK A01
KHHV 152020Z AUTO 06017KT 7SM CLR 26/25 A2999 RMK A01
KHHV 152000Z AUTO 05014KT 8SM FEW029 FEW033 SCT100 26/25 A2999 RMK A01 P0030
KHHV 151935Z AUTO 05012G26KT 1/2SM BR BKN006 OVC027 25/24 A3000 RMK A01
KHHV 151920Z AUTO 07027G35KT 1SM BR SCT008 BKN019 BKN035 26/24 A3000 RMK A01
KHHV 151900Z AUTO 07020KT 7SM FEW013 SCT032 BKN050 27/25 A3001 RMK A01 P0001
KHHV 151840Z AUTO 07017KT 7SM FEW048 26/25 A3001 RMK A01
KHHV 151815Z AUTO 08014KT 4SM HZ CLR 26/24 A3003 RMK A01
KHHV 151800Z AUTO 08015G20KT 5SM BR FEW026 FEW037 SCT055 26/24 A3004 RMK A01 P0029
KHHV 151700Z AUTO 05021G28KT 1/2SM HZ SCT008 BKN018 BKN022 26/24 A3006 RMK A01 P0037
KHHV 151640Z AUTO 04017KT 10SM BKN020 BKN031 32/24 A3006 RMK A01
KHHV 151615Z AUTO 03008KT 10SM SCT017 BKN024 BKN042 32/25 A3005 RMK A01
KHHV 151600Z AUTO 03006KT 10SM FEW016 FEW024 SCT046 32/25 A3005 RMK A01
KHHV 151535Z AUTO 05009KT 10SM FEW016 SCT033 SCT041 31/25 A3006 RMK A01
KHHV 151520Z AUTO 05009KT 10SM FEW016 30/25 A3005 RMK A01
KHHV 151455Z AUTO 05008KT 10SM SCT017 SCT024 BKN033 29/25 A3004 RMK A01
KHHV 151440Z AUTO 04004KT 10SM SCT017 SCT021 BKN026 29/25 A3004 RMK A01
KHHV 151415Z AUTO 04004KT 10SM FEW021 SCT026 SCT033 28/25 A3002 RMK A01
KHHV 151400Z AUTO 05003KT 2SM HZ FEW016 SCT024 BKN033 27/25 A3002 RMK A01 P0011
KHHV 151335Z AUTO VRB04KT 2SM HZ FEW024 BKN036 BKN050 27/25 A3001 RMK A01 VIS 1V5
KHHV 151320Z AUTO 06007KT 4SM HZ FEW034 SCT039 BKN047 28/25 A3001 RMK A01
KHHV 151255Z AUTO 04007KT 8SM SCT015 SCT027 BKN037 28/25 A3000 RMK A01
KHHV 151240Z AUTO 02004KT 9SM SCT015 BKN026 OVC045 28/25 A3000 RMK A01
KHHV 151215Z AUTO 03005KT 10SM FEW015 FEW020 SCT037 29/24 A2999 RMK A01
KHHV 151200Z AUTO 04006KT 10SM CLR 29/24 A2999 RMK A01
KHHV 151135Z AUTO 05005KT 10SM FEW014 29/24 A2999 RMK A01
KHHV 151120Z AUTO 04005KT 10SM SCT015 SCT021 29/24 A2998 RMK A01
KHHV 151055Z AUTO 05006KT 10SM FEW016 FEW022 SCT034 28/24 A2998 RMK A01
KHHV 151040Z AUTO 07005KT 10SM SCT017 SCT021 BKN026 28/24 A2998 RMK A01
KHHV 151015Z AUTO 06005KT 10SM FEW018 SCT027 SCT034 28/24 A2997 RMK A01
KHHV 151000Z AUTO 08003KT 10SM FEW018 SCT027 SCT034 28/24 A2997 RMK A01
KHHV 150935Z AUTO 07005KT 10SM SCT017 29/24 A2997 RMK A01
KHHV 150920Z AUTO 08007KT 10SM BKN017 30/24 A2997 RMK A01
KHHV 150855Z AUTO 08007KT BKN015 BKN020 30/24 A2997 RMK A01
KHHV 150840Z AUTO 08007KT 10SM SCT016 30/24 A2996 RMK A01
KHHV 150815Z AUTO 07007KT 10SM SCT016 SCT021 SCT027 29/24 A2997 RMK A01
KHHV 150800Z AUTO 07008KT 10SM CLR 28/24 A2997 RMK A01
KHHV 150740Z AUTO 07009KT 10SM CLR 28/24 A2998 RMK A01
KHHV 150715Z AUTO 07007KT 10SM CLR 28/24 A2998 RMK A01
KHHV 150700Z AUTO 06007KT 10SM CLR 28/24 A2999 RMK A01
KHHV 150635Z AUTO 06006KT 10SM CLR 28/24 A2999 RMK A01
KHHV 150620Z AUTO 06007KT 10SM FEW035 29/23 A3000 RMK A01
KHHV 150555Z AUTO 07007KT 10SM SCT038 29/23 A3000 RMK A01
KHHV 150540Z AUTO 07009KT 10SM SCT038 BKN050 30/24 A3001 RMK A01
KHHV 150515Z AUTO 07008KT 10SM BKN048 29/21 A3001 RMK A01
KHHV 150500Z AUTO 07007KT 10SM SCT048 29/20 A3001 RMK A01
KHHV 150435Z AUTO 07008KT 10SM CLR 29/21 A3002 RMK A01
KHHV 150420Z AUTO 07008KT 10SM CLR 29/21 A3002 RMK A01
KHHV 150355Z AUTO 07008KT 10SM CLR 29/20 A3002 RMK A01
KHHV 150340Z AUTO 08007KT 10SM CLR 29/21 A3003 RMK A01
KHHV 150315Z AUTO 08007KT 10SM CLR 29/21 A3002 RMK A01
KHHV 150300Z AUTO 08008KT 10SM CLR 30/21 A3002 RMK A01
KHHV 150235Z AUTO 08008KT 10SM CLR 30/21 A3003 RMK A01
KHHV 150220Z AUTO 07009KT 10SM CLR 30/21 A3003 RMK A01
KHHV 150155Z AUTO 08008KT 10SM CLR 30/21 A3002 RMK A01
KHHV 150140Z AUTO 09010KT 10SM CLR 29/21 A3002 RMK A01
KHHV 150115Z AUTO 09011KT 10SM FEW028 31/22 A3001 RMK A01
KHHV 150100Z AUTO 09013KT 10SM FEW028 30/21 A3000 RMK A01
KHHV 150035Z AUTO 09012KT 10SM FEW028 31/22 A2999 RMK A01
KHHV 150020Z AUTO 09011KT 10SM SCT028 SCT036 30/22 A2999 RMK A01
KHHV 142355Z AUTO 10011KT 10SM SCT028 BKN032 30/22 A2999 RMK A01
KHHV 142340Z AUTO 10012KT 10SM SCT027 BKN032 30/22 A2999 RMK A01
KHHV 142315Z AUTO 10012KT 10SM SCT028 SCT033 32/22 A2999 RMK A01
KHHV 142255Z AUTO 09012KT 10SM SCT027 BKN034 32/22 A2999 RMK A01
KHHV 142240Z AUTO 10010KT 10SM SCT027 SCT034 33/22 A2999 RMK A01
KHHV 142215Z AUTO 09013KT 10SM SCT026 BKN032 BKN043 33/23 A2999 RMK A01
KHHV 142155Z AUTO 09013KT 10SM BKN027 BKN033 OVC060 33/23 A2999 RMK A01
KHHV 142135Z AUTO 09013KT 10SM SCT026 SCT031 BKN050 34/23 A2999 RMK A01
KHHV 142120Z AUTO 10011KT 10SM FEW028 FEW040 FEW050 34/22 A2999 RMK A01
KHHV 142055Z AUTO 11012KT 10SM FEW030 FEW037 33/22 A2999 RMK A01
KHHV 142040Z AUTO 10014KT 10SM FEW028 FEW036 33/22 A2999 RMK A01
KHHV 142015Z AUTO 10012KT 10SM FEW029 FEW038 33/22 A2999 RMK A01
KHHV 142000Z AUTO 10012KT 10SM FEW028 34/22 A2999 RMK A01
KHHV 141935Z AUTO 09012KT 10SM SCT027 36/23 A3000 RMK A01
KHHV 141920Z AUTO 09012KT 10SM SCT026 36/23 A3000 RMK A01
KHHV 141855Z AUTO 09013KT 10SM FEW027 36/23 A3001 RMK A01
KHHV 141840Z AUTO 09014KT 10SM FEW027 35/23 A3002 RMK A01
KHHV 141815Z AUTO 09014KT 10SM CLR 35/22 A3003 RMK A01
KHHV 141800Z AUTO 10015KT 10SM CLR 35/23 A3004 RMK A01
KHHV 141735Z AUTO 10015KT 10SM CLR 34/23 A3005 RMK A01
KHHV 141720Z AUTO 10015KT 10SM CLR 34/23 A3005 RMK A01
KHHV 141655Z AUTO 10015KT 10SM CLR 35/22 A3006 RMK A01
KHHV 141640Z AUTO 10015KT 10SM FEW028 FEW032 SCT050 34/23 A3007 RMK A01
KHHV 141615Z AUTO 10017KT 10SM BKN026 BKN031 OVC037 33/23 A3006 RMK A01
KHHV 141600Z AUTO 10012KT 10SM FEW024 SCT029 BKN033 32/23 A3006 RMK A01
KHHV 141535Z AUTO 09012KT 10SM CLR 33/23 A3007 RMK A01
KHHV 141520Z AUTO 09013KT 10SM CLR 31/22 A3007 RMK A01
KHHV 141455Z AUTO 10013KT 10SM CLR 31/22 A3006 RMK A01
KHHV 141440Z AUTO 09012KT 10SM CLR 31/22 A3006 RMK A01
KHHV 141420Z AUTO 10012KT 10SM CLR 30/22 A3005 RMK A01
KHHV 141355Z AUTO 10013KT 10SM CLR 30/22 A3005 RMK A01
KHHV 141340Z AUTO 10014KT 10SM CLR 30/22 A3005 RMK A01
KHHV 141315Z AUTO 10014KT 10SM CLR 30/22 A3004 RMK A01
KHHV 141300Z AUTO 10014KT 10SM CLR 29/22 A3004 RMK A01
KHHV 141235Z AUTO 10014KT 10SM FEW026 FEW032 30/22 A3004 RMK A01
KHHV 141215Z AUTO 09015KT 10SM CLR 29/22 A3004 RMK A01
KHHV 141200Z AUTO 10013KT 10SM CLR 28/22 A3004 RMK A01
KHHV 141135Z AUTO 11012KT 10SM CLR 28/22 A3003 RMK A01
KHHV 141120Z AUTO 11013KT 10SM CLR 28/22 A3003 RMK A01
KHHV 141055Z AUTO 12012KT 10SM SCT027 SCT034 28/22 A3002 RMK A01
KHHV 141040Z AUTO 11012KT 10SM BKN026 BKN035 28/22 A3002 RMK A01
KHHV 141015Z AUTO 12011KT 10SM FEW028 FEW033 28/22 A3002 RMK A01
KHHV 140955Z AUTO 11014KT 10SM FEW028 28/22 A3002 RMK A01
KHHV 140940Z AUTO 11013KT 10SM SCT027 SCT032 28/22 A3001 RMK A01
KHHV 140915Z AUTO 11015KT 10SM BKN027 28/22 A3001 RMK A01
KHHV 140900Z AUTO 10015KT 10SM SCT027 28/22 A3001 RMK A01
KHHV 140835Z AUTO 12014KT 10SM SCT027 28/21 A3001 RMK A01
KHHV 140815Z AUTO 11016KT 10SM SCT027 28/21 A3001 RMK A01
KHHV 140800Z AUTO 12016KT 10SM SCT024 28/22 A3002 RMK A01
KHHV 140735Z AUTO 12011G20KT 070V150 10SM SCT025 28/22 A3002 RMK A01
KHHV 140720Z AUTO 12015G21KT 10SM FEW024 SCT060 29/22 A3003 RMK A01
KHHV 140655Z AUTO 11019KT 10SM FEW022 BKN060 OVC070 28/23 A3003 RMK A01
KHHV 140640Z AUTO 11020KT 10SM FEW018 SCT055 BKN070 29/24 A3003 RMK A01
KHHV 140615Z AUTO 11018KT 10SM SCT020 SCT027 BKN070 29/24 A3003 RMK A01
KHHV 140600Z AUTO 10021KT 10SM SCT021 SCT070 29/24 A3003 RMK A01
KHHV 140540Z AUTO 10020KT 10SM FEW022 30/24 A3003 RMK A01
KHHV 140515Z AUTO 10020KT 10SM FEW020 30/24 A3004 RMK A01
KHHV 140500Z AUTO 10019KT 10SM FEW020 30/24 A3004 RMK A01
KHHV 140435Z AUTO 09019KT 10SM FEW019 31/24 A3004 RMK A01
KHHV 140420Z AUTO 10019KT 10SM CLR 31/24 A3005 RMK A01
KHHV 140355Z AUTO 09020KT 10SM FEW020 FEW025 31/24 A3005 RMK A01
KHHV 140335Z AUTO 09020KT 10SM SCT020 31/24 A3005 RMK A01
KHHV 140320Z AUTO 09020KT 10SM SCT021 31/24 A3005 RMK A01
KHHV 140255Z AUTO 09020KT 10SM FEW021 31/24 A3005 RMK A01
KHHV 140240Z AUTO 09019KT 10SM FEW020 31/24 A3004 RMK A01
KHHV 140215Z AUTO 08020KT 10SM FEW020 30/24 A3003 RMK A01
KHHV 140200Z AUTO 08021KT 10SM CLR 31/24 A3003 RMK A01
KHHV 140135Z AUTO 08019KT 10SM FEW020 30/24 A3002 RMK A01
KHHV 140115Z AUTO 08019KT 10SM SCT020 30/24 A3002 RMK A01
KHHV 140100Z AUTO 08018KT 10SM FEW021 30/24 A3002 RMK A01
KHHV 140035Z AUTO 07017KT 10SM BKN020 BKN029 29/24 A3001 RMK A01
KHHV 140020Z AUTO 07016KT 9SM SCT021 30/24 A3001 RMK A01
KHHV 132355Z AUTO 08018KT 10SM CLR 30/24 A3001 RMK A01
KHHV 132340Z AUTO 07017KT 10SM CLR 31/24 A3000 RMK A01
KHHV 132315Z AUTO 07017KT 10SM CLR 31/23 A3000 RMK A01
KHHV 132255Z AUTO 07018KT 10SM CLR 33/24 A3000 RMK A01
KHHV 132240Z AUTO 07017KT 10SM FEW022 32/23 A3000 RMK A01
KHHV 132215Z AUTO 07017KT 10SM CLR 32/24 A3000 RMK A01
KHHV 132200Z AUTO 07017KT 10SM CLR 32/24 A3001 RMK A01
KHHV 132135Z AUTO 06016KT 10SM CLR 33/23 A3001 RMK A01
KHHV 132115Z AUTO 07015KT 10SM CLR 33/23 A3001 RMK A01
KHHV 132100Z AUTO 07015KT 10SM FEW023 FEW028 33/23 A3001 RMK A01
KHHV 132035Z AUTO 07015KT 10SM FEW022 FEW033 FEW039 32/23 A3002 RMK A01
KHHV 132020Z AUTO 07015KT 10SM FEW022 FEW033 33/24 A3002 RMK A01
KHHV 131955Z AUTO 07013KT 10SM FEW022 34/24 A3002 RMK A01
KHHV 131940Z AUTO 08014KT 10SM FEW022 34/24 A3003 RMK A01
KHHV 131915Z AUTO 07014KT 10SM FEW022 35/24 A3003 RMK A01
KHHV 131900Z AUTO 08013KT 10SM FEW023 35/24 A3004 RMK A01
KHHV 131840Z AUTO 08014KT 10SM FEW021 SCT028 SCT035 36/24 A3005 RMK A01
KHHV 131815Z AUTO 08013KT 10SM FEW026 SCT034 35/24 A3006 RMK A01
KHHV 131800Z AUTO 07014KT 10SM CLR 36/24 A3006 RMK A01
KHHV 131735Z AUTO 08014KT 10SM FEW021 FEW032 36/24 A3007 RMK A01
KHHV 131720Z AUTO 08012KT 10SM FEW021 FEW032 35/24 A3008 RMK A01
KHHV 131655Z AUTO 08012KT 10SM FEW019 35/24 A3009 RMK A01
KHHV 131635Z AUTO 08013KT 10SM CLR 35/24 A3009 RMK A01
KHHV 131615Z AUTO 08013KT 10SM CLR 35/24 A3009 RMK A01
KHHV 131555Z AUTO 08013KT 10SM CLR 34/24 A3008 RMK A01
KHHV 131535Z AUTO 09014KT 10SM CLR 33/23 A3008 RMK A01
KHHV 131515Z AUTO 08013KT 10SM CLR 32/24 A3008 RMK A01
KHHV 131500Z AUTO 08014KT 10SM CLR 32/24 A3008 RMK A01
KHHV 131440Z AUTO 08014KT 10SM CLR 32/23 A3008 RMK A01
KHHV 131415Z AUTO 08014KT 10SM CLR 32/24 A3007 RMK A01
KHHV 131400Z AUTO 09014KT 10SM CLR 31/24 A3007 RMK A01
KHHV 131335Z AUTO 08013KT 10SM CLR 31/23 A3007 RMK A01
KHHV 131320Z AUTO 08013KT 10SM CLR 31/24 A3006 RMK A01
KHHV 131255Z AUTO 08013KT 10SM FEW030 30/24 A3006 RMK A01
KHHV 131240Z AUTO 08013KT 10SM SCT022 SCT028 30/23 A3005 RMK A01
KHHV 131220Z AUTO 07013KT 10SM BKN021 BKN026 BKN031 30/24 A3005 RMK A01
KHHV 131155Z AUTO 09013KT 10SM BKN022 BKN026 BKN031 30/24 A3004 RMK A01
KHHV 131140Z AUTO 07011KT 10SM BKN022 BKN027 30/24 A3003 RMK A01
KHHV 131115Z AUTO 09013KT 10SM SCT021 BKN027 31/24 A3003 RMK A01
KHHV 131100Z AUTO 09011KT 10SM BKN021 31/24 A3003 RMK A01
KHHV 131035Z AUTO 10011KT 10SM SCT021 SCT026 30/24 A3002 RMK A01
KHHV 131015Z AUTO 09013KT 10SM SCT019 BKN025 31/24 A3002 RMK A01
KHHV 131000Z AUTO 09012KT 10SM SCT022 30/24 A3002 RMK A01
KHHV 130935Z AUTO 09013KT 10SM SCT023 SCT028 31/24 A3002 RMK A01
KHHV 130920Z AUTO 09013KT 10SM FEW021 31/24 A3002 RMK A01
KHHV 130855Z AUTO 09014KT 10SM FEW021 30/24 A3002 RMK A01
KHHV 130840Z AUTO 09014KT 10SM SCT020 30/24 A3002 RMK A01
KHHV 130815Z AUTO 09015KT 10SM FEW021 30/24 A3002 RMK A01
KHHV 130755Z AUTO 10014KT 10SM FEW020 SCT026 SCT032 30/24 A3002 RMK A01
KHHV 130740Z AUTO 09015KT 10SM SCT021 BKN026 BKN033 30/24 A3002 RMK A01
KHHV 130715Z AUTO 09013KT 10SM SCT020 BKN025 30/24 A3002 RMK A01
KHHV 130700Z AUTO 10013KT 10SM SCT020 BKN026 30/24 A3002 RMK A01
KHHV 130635Z AUTO 10013KT 10SM FEW021 30/24 A3002 RMK A01
KHHV 130620Z AUTO 10013KT 10SM SCT020 30/24 A3002 RMK A01
KHHV 130555Z AUTO 09012KT 10SM BKN020 31/24 A3003 RMK A01
KHHV 130540Z AUTO 09012KT 10SM BKN020 30/24 A3003 RMK A01
KHHV 130515Z AUTO 10015KT 10SM FEW021 30/24 A3003 RMK A01
KHHV 130500Z AUTO 09014KT 10SM FEW021 30/24 A3003 RMK A01
KHHV 130435Z AUTO 10014KT 10SM FEW021 30/23 A3004 RMK A01
KHHV 130420Z AUTO 10016KT 10SM FEW022 30/24 A3004 RMK A01
KHHV 130355Z AUTO 10015KT 10SM SCT021 SCT028 30/24 A3004 RMK A01
KHHV 130340Z AUTO 10014KT 10SM SCT021 SCT026 30/24 A3004 RMK A01
KHHV 130315Z AUTO 09014KT 10SM FEW021 FEW026 31/24 A3004 RMK A01
KHHV 130255Z AUTO 09014KT 10SM FEW021 31/24 A3003 RMK A01
KHHV 130240Z AUTO 09014KT 10SM FEW021 31/24 A3003 RMK A01
KHHV 130215Z AUTO 09012KT 10SM FEW020 31/23 A3002 RMK A01
KHHV 130155Z AUTO 09014KT 10SM FEW020 31/24 A3002 RMK A01
KHHV 130135Z AUTO 08013KT 10SM CLR 31/23 A3002 RMK A01
KHHV 130115Z AUTO 08014KT 10SM FEW021 SCT028 31/24 A3002 RMK A01
KHHV 130055Z AUTO 08015KT 10SM SCT020 31/24 A3001 RMK A01
KHHV 130035Z AUTO 08013KT 10SM FEW020 31/24 A3001 RMK A01
KHHV 130015Z AUTO 08014KT 10SM FEW020 31/24 A3001 RMK A01
KHHV 122355Z AUTO 08015KT 10SM CLR 31/24 A3001 RMK A01
KHHV 122335Z AUTO 08015KT 10SM FEW021 FEW026 32/24 A3001 RMK A01
KHHV 122320Z AUTO 08014KT 10SM FEW020 SCT025 32/24 A3000 RMK A01
KHHV 122255Z AUTO 07014KT 10SM FEW020 31/24 A2999 RMK A01
KHHV 122240Z AUTO 08015KT 10SM FEW021 31/24 A2999 RMK A01
KHHV 122215Z AUTO 07014KT 10SM FEW022 SCT039 32/24 A2999 RMK A01
KHHV 122200Z AUTO 07015KT 10SM SCT022 SCT036 BKN041 31/24 A2999 RMK A01
KHHV 122135Z AUTO 07014KT 10SM SCT021 SCT030 SCT036 33/24 A3000 RMK A01
KHHV 122115Z AUTO 08014KT 10SM FEW024 SCT030 35/23 A3000 RMK A01
KHHV 122055Z AUTO 09015KT 10SM SCT023 BKN030 33/23 A3000 RMK A01
KHHV 122035Z AUTO 07016KT 10SM BKN021 BKN033 BKN043 32/24 A3000 RMK A01
KHHV 122015Z AUTO 07015KT 10SM BKN022 BKN029 OVC050 33/24 A3000 RMK A01
KHHV 121955Z AUTO 07015KT 10SM SCT022 SCT027 SCT031 32/24 A3001 RMK A01
KHHV 121935Z AUTO 07015KT 10SM SCT023 33/24 A3001 RMK A01
KHHV 121915Z AUTO 07015KT 10SM SCT020 SCT026 BKN047 34/24 A3002 RMK A01
KHHV 121855Z AUTO 07015KT 10SM SCT020 BKN026 BKN031 34/24 A3003 RMK A01
KHHV 121835Z AUTO 07014KT 10SM SCT019 SCT024 36/24 A3004 RMK A01
KHHV 121815Z AUTO 08013KT 10SM CLR 36/23 A3004 RMK A01
KHHV 121755Z AUTO 08013KT 10SM CLR 36/23 A3005 RMK A01
KHHV 121735Z AUTO 08013KT 10SM CLR 36/23 A3005 RMK A01
KHHV 121715Z AUTO 09014KT 10SM FEW024 35/23 A3006 RMK A01
KHHV 121655Z AUTO 08013KT 10SM SCT024 SCT031 34/23 A3006 RMK A01
KHHV 121635Z AUTO 08013KT 10SM SCT022 SCT026 SCT031 34/24 A3006 RMK A01
KHHV 121620Z AUTO 08014KT 10SM FEW022 35/24 A3006 RMK A01
KHHV 121555Z AUTO 09013KT 10SM CLR 34/24 A3006 RMK A01
KHHV 121535Z AUTO 09012KT 10SM CLR 33/24 A3006 RMK A01
KHHV 121515Z AUTO 09012KT 10SM CLR 31/24 A3006 RMK A01
KHHV 121455Z AUTO 09012KT 10SM FEW022 30/23 A3006 RMK A01
KHHV 121435Z AUTO 10012KT 10SM CLR 30/23 A3006 RMK A01
KHHV 121415Z AUTO 10012KT 10SM CLR 30/23 A3005 RMK A01
KHHV 121355Z AUTO 10012KT 10SM CLR 30/23 A3005 RMK A01
KHHV 121335Z AUTO 10012KT 10SM CLR 30/23 A3004 RMK A01
KHHV 121315Z AUTO 10012KT 10SM CLR 30/23 A3003 RMK A01
KHHV 121255Z AUTO 10012KT 10SM CLR 30/23 A3003 RMK A01
KHHV 121235Z AUTO 10014KT 10SM CLR 30/23 A3002 RMK A01
KHHV 121215Z AUTO 10013KT 10SM CLR 30/23 A3002 RMK A01
KHHV 121155Z AUTO 10014KT 10SM CLR 29/23 A3002 RMK A01
KHHV 121135Z AUTO 10013KT 10SM CLR 29/23 A3001 RMK A01
KHHV 121115Z AUTO 10012KT 10SM CLR 29/23 A3001 RMK A01
KHHV 121055Z AUTO 10012KT 10SM FEW022 SCT035 SCT060 30/23 A3001 RMK A01
KHHV 121035Z AUTO 10016KT 10SM SCT020 SCT025 SCT033 31/24 A3000 RMK A01
KHHV 121015Z AUTO 09014KT 10SM FEW020 SCT025 SCT033 30/24 A3000 RMK A01
KHHV 120955Z AUTO 08014KT 10SM FEW020 30/24 A3000 RMK A01
KHHV 120935Z AUTO 10015KT 10SM CLR 29/23 A2999 RMK A01
KHHV 120915Z AUTO 09015KT 10SM FEW021 FEW026 30/23 A2999 RMK A01
KHHV 120855Z AUTO 10015KT 10SM SCT021 SCT026 30/24 A2999 RMK A01
KHHV 120835Z AUTO 10015KT 10SM FEW019 SCT026 30/24 A3000 RMK A01
KHHV 120815Z AUTO 10016KT 10SM FEW020 FEW027 29/24 A3000 RMK A01
KHHV 120755Z AUTO 10016KT 10SM FEW020 FEW027 30/24 A3000 RMK A01
KHHV 120735Z AUTO 10016KT 10SM FEW021 30/24 A3001 RMK A01
KHHV 120715Z AUTO 10018KT 10SM FEW020 30/24 A3001 RMK A01
KHHV 120655Z AUTO 10016KT 10SM FEW020 30/24 A3001 RMK A01
KHHV 120635Z AUTO 10016KT 10SM FEW020 FEW028 FEW047 30/24 A3002 RMK A01
KHHV 120615Z AUTO 09018KT 10SM SCT022 SCT029 SCT034 31/24 A3001 RMK A01
KHHV 120555Z AUTO 09017KT 10SM SCT021 SCT027 SCT034 30/25 A3002 RMK A01
KHHV 120535Z AUTO 10020KT 10SM CLR 30/24 A3002 RMK A01
KHHV 120515Z AUTO 09018KT 10SM CLR 29/24 A3003 RMK A01
KHHV 120455Z AUTO 10020KT 10SM FEW019 FEW034 SCT047 30/24 A3004 RMK A01
KHHV 120435Z AUTO 10019KT 10SM SCT019 SCT034 30/24 A3004 RMK A01
KHHV 120415Z AUTO 09019KT 10SM FEW020 30/24 A3004 RMK A01
KHHV 120355Z AUTO 09016KT 10SM SCT020 SCT028 SCT035 31/25 A3005 RMK A01
KHHV 120335Z AUTO 08017KT 10SM FEW019 SCT025 SCT030 30/24 A3004 RMK A01
KHHV 120315Z AUTO 09018KT 10SM CLR 30/24 A3004 RMK A01
KHHV 120255Z AUTO 08019KT 10SM FEW018 SCT024 SCT029 30/25 A3004 RMK A01
KHHV 120235Z AUTO 08020KT 10SM FEW018 SCT024 BKN030 29/24 A3003 RMK A01
KHHV 120215Z AUTO 07019KT 10SM SCT019 SCT029 BKN036 29/24 A3002 RMK A01
KHHV 120155Z AUTO 07019KT 10SM SCT018 29/25 A3002 RMK A01
KHHV 120135Z AUTO 07016KT 10SM FEW020 FEW031 FEW039 30/24 A3001 RMK A01
KHHV 120115Z AUTO 08017KT 10SM BKN019 BKN032 BKN041 29/24 A3002 RMK A01
KHHV 120055Z AUTO 05015KT 10SM SCT018 BKN022 BKN040 29/25 A3002 RMK A01
KHHV 120035Z AUTO 07016KT 10SM FEW019 FEW040 29/24 A3002 RMK A01
KHHV 120015Z AUTO 07018KT 10SM CLR 29/24 A3002 RMK A01
KHHV 112355Z AUTO 08016KT 10SM FEW020 FEW037 SCT085 29/24 A3001 RMK A01
KHHV 112335Z AUTO 07017KT 8SM SCT019 SCT035 BKN060 30/25 A3001 RMK A01
KHHV 112315Z AUTO 06016KT 10SM FEW019 FEW035 31/24 A3001 RMK A01
KHHV 112255Z AUTO 06017KT 10SM SCT020 31/24 A3001 RMK A01
KHHV 112235Z AUTO 07016KT 10SM FEW019 FEW030 SCT039 32/24 A3000 RMK A01
KHHV 112215Z AUTO 06016KT 10SM FEW020 SCT030 BKN046 32/24 A3000 RMK A01
KHHV 112155Z AUTO 06016KT 10SM SCT019 SCT025 32/24 A3001 RMK A01
KHHV 112135Z AUTO 06016KT 10SM SCT020 BKN028 32/24 A3001 RMK A01
KHHV 112115Z AUTO 06016KT 10SM SCT020 BKN029 BKN039 32/24 A3002 RMK A01
KHHV 112055Z AUTO 07016KT 10SM BKN020 BKN029 BKN039 32/24 A3002 RMK A01
KHHV 112035Z AUTO 06014KT 10SM BKN019 BKN038 32/25 A3002 RMK A01
KHHV 112015Z AUTO 06015KT 10SM SCT020 SCT025 BKN038 32/24 A3002 RMK A01
KHHV 111955Z AUTO 07015KT 10SM FEW021 FEW028 SCT034 33/25 A3002 RMK A01
KHHV 111935Z AUTO 07015KT 10SM FEW019 SCT027 BKN034 32/24 A3003 RMK A01
KHHV 111915Z AUTO 07015KT 10SM BKN020 BKN029 BKN065 31/25 A3003 RMK A01
KHHV 111855Z AUTO 05010G18KT 7SM SCT018 SCT023 BKN029 32/25 A3004 RMK A01
KHHV 111835Z AUTO 07013KT 10SM FEW020 SCT029 BKN035 33/25 A3004 RMK A01
KHHV 111815Z AUTO 07015KT 10SM SCT020 BKN029 BKN034 32/25 A3005 RMK A01
KHHV 111755Z AUTO 08017KT 10SM SCT020 SCT025 BKN033 32/25 A3005 RMK A01
KHHV 111735Z AUTO 07017KT 10SM BKN020 BKN027 BKN035 30/25 A3006 RMK A01
KHHV 111715Z AUTO 05010G19KT 3/4SM HZ BKN021 BKN027 BKN036 28/25 A3006 RMK A01
KHHV 111655Z AUTO 08021KT 6SM HZ FEW032 FEW043 FEW050 32/25 A3006 RMK A01
KHHV 111635Z AUTO 07017KT 9SM FEW031 31/25 A3006 RMK A01
KHHV 111615Z AUTO 07018KT 10SM FEW100 30/25 A3006 RMK A01
KHHV 111555Z AUTO 06018KT 10SM SCT095 30/24 A3007 RMK A01
KHHV 111535Z AUTO 06017KT 10SM SCT090 29/24 A3007 RMK A01
KHHV 111515Z AUTO 06019KT 10SM FEW029 FEW037 29/24 A3006 RMK A01
KHHV 111455Z AUTO 07017KT 10SM CLR 28/25 A3006 RMK A01
KHHV 111435Z AUTO 08018KT 9SM CLR 27/25 A3004 RMK A01
KHHV 111415Z AUTO 06016KT 6SM BR FEW024 FEW048 FEW055 27/25 A3005 RMK A01
KHHV 111355Z AUTO 08020KT 4SM BR FEW037 SCT055 BKN065 27/26 A3004 RMK A01
KHHV 111335Z AUTO 06021KT 1 1/4SM BR BKN005 BKN017 OVC045 26/25 A3004 RMK A01
KHHV 111315Z AUTO 07029KT 9SM FEW017 SCT031 BKN090 27/25 A3002 RMK A01
KHHV 111255Z AUTO 06011KT 8SM FEW041 FEW065 SCT090 26/25 A3002 RMK A01
KHHV 111235Z AUTO 06018G23KT 2SM BR FEW021 SCT031 BKN041 25/23 A3002 RMK A01
KHHV 111215Z AUTO 09020G34KT 3/4SM BR BKN004 BKN011 OVC021 26/24 A3002 RMK A01
KHHV 111155Z AUTO 05015G25KT 1/2SM HZ BKN004 BKN020 OVC041 27/24 A3002 RMK A01
KHHV 111135Z AUTO 06014KT 5SM HZ FEW030 SCT043 OVC060 28/24 A3000 RMK A01
KHHV 111115Z AUTO 09021KT 9SM SCT024 BKN031 OVC060 29/23 A2999 RMK A01
KHHV 111055Z AUTO 07019KT 10SM SCT023 SCT034 29/23 A2999 RMK A01
KHHV 111035Z AUTO 07020KT 10SM SCT021 29/23 A2999 RMK A01
KHHV 111015Z AUTO 07019KT 10SM SCT021 BKN085 29/24 A2998 RMK A01
KHHV 110955Z AUTO 06017KT 10SM BKN021 BKN065 OVC085 29/24 A2998 RMK A01
KHHV 110935Z AUTO 06016KT 10SM FEW019 BKN080 OVC095 29/24 A2998 RMK A01
KHHV 110915Z AUTO 07017KT 10SM SCT018 SCT023 BKN100 29/24 A2998 RMK A01
KHHV 110855Z AUTO 06016KT 10SM FEW018 29/25 A2998 RMK A01
KHHV 110835Z AUTO 07016KT 10SM FEW085 29/24 A2998 RMK A01
KHHV 110815Z AUTO 07017KT 10SM SCT075 BKN085 29/24 A2998 RMK A01
KHHV 110755Z AUTO 07017KT 10SM FEW044 SCT075 SCT090 29/24 A3000 RMK A01
KHHV 110735Z AUTO 07016KT 10SM FEW022 FEW040 SCT046 29/24 A3000 RMK A01
KHHV 110715Z AUTO 07015KT 10SM FEW019 SCT045 SCT070 29/24 A3000 RMK A01
KHHV 110655Z AUTO 07014KT 10SM FEW019 BKN070 BKN090 29/24 A3001 RMK A01
KHHV 110635Z AUTO 07015KT 10SM FEW018 FEW060 SCT090 29/24 A3001 RMK A01
KHHV 110615Z AUTO 07014KT 10SM FEW018 FEW022 SCT060 29/25 A3001 RMK A01
KHHV 110555Z AUTO 07014KT 10SM CLR 29/24 A3002 RMK A01
KHHV 110535Z AUTO 07014KT 10SM FEW018 29/24 A3002 RMK A01
KHHV 110515Z AUTO 07015KT 10SM FEW017 29/25 A3003 RMK A01
KHHV 110455Z AUTO 07016KT 10SM FEW017 FEW024 SCT030 29/25 A3003 RMK A01
KHHV 110435Z AUTO 08017KT 10SM FEW016 SCT023 BKN031 29/25 A3003 RMK A01
KHHV 110415Z AUTO 06014KT 10SM SCT015 SCT024 SCT030 29/25 A3003 RMK A01
KHHV 110355Z AUTO 07014KT 10SM CLR 29/25 A3003 RMK A01
KHHV 110335Z AUTO 07017KT 10SM FEW024 FEW030 30/24 A3003 RMK A01
KHHV 110315Z AUTO 08016KT 10SM FEW018 FEW024 SCT029 30/25 A3003 RMK A01
KHHV 110255Z AUTO 08015KT 10SM FEW016 29/25 A3003 RMK A01
KHHV 110235Z AUTO 08016KT 10SM CLR 30/24 A3003 RMK A01
KHHV 110215Z AUTO 08015KT 10SM FEW016 30/25 A3002 RMK A01
KHHV 110155Z AUTO 08013KT 10SM FEW016 FEW100 30/25 A3003 RMK A01
KHHV 110135Z AUTO 08013KT 10SM SCT100 30/25 A3002 RMK A01
KHHV 110115Z AUTO 07014KT CLR 30/24 A3002 RMK A01
KHHV 110055Z AUTO 07015KT 10SM CLR 29/24 A3001 RMK A01
KHHV 110035Z AUTO 07015KT 10SM CLR 30/24 A3000 RMK A01
KHHV 110015Z AUTO 08016KT 10SM CLR 31/24 A2999 RMK A01
KHHV 102355Z AUTO 08014KT 10SM FEW085 30/22 A2999 RMK A01
KHHV 102335Z AUTO 09014KT 10SM FEW047 FEW055 BKN085 30/22 A2999 RMK A01
KHHV 102315Z AUTO 10015KT 10SM FEW019 BKN050 OVC110 29/22 A3000 RMK A01
KHHV 102255Z AUTO 11021KT 9SM BKN018 BKN029 OVC060 30/24 A2999 RMK A01
KHHV 102235Z AUTO 08013KT 10SM BKN017 BKN023 OVC028 32/25 A3000 RMK A01
KHHV 102215Z AUTO 10010KT 10SM SCT017 SCT026 33/25 A2999 RMK A01
KHHV 102155Z AUTO 08012KT 10SM FEW016 FEW022 34/25 A2998 RMK A01
KHHV 102135Z AUTO 09013KT 10SM FEW018 FEW024 35/25 A2999 RMK A01
KHHV 102115Z AUTO 09013KT 10SM FEW016 SCT022 36/26 A2998 RMK A01
KHHV 102055Z AUTO 09014KT 10SM SCT019 SCT024 35/26 A2999 RMK A01
KHHV 102035Z AUTO 10012KT 10SM FEW017 33/25 A2999 RMK A01
KHHV 102015Z AUTO 10012KT 10SM CLR 33/25 A2999 RMK A01
KHHV 101955Z AUTO 10012KT 10SM FEW020 FEW026 33/25 A2999 RMK A01
KHHV 101935Z AUTO 10012KT 10SM FEW018 SCT025 34/25 A2999 RMK A01
KHHV 101915Z AUTO 11012KT 10SM FEW017 SCT025 33/25 A2999 RMK A01
KHHV 101750Z AUTO 11011KT 10SM FEW015 SCT019 BKN060 32/26 A3001 RMK A01
KHHV 101735Z AUTO 12010KT 10SM SCT018 SCT025 33/26 A3002 RMK A01
KHHV 101715Z AUTO 13008KT 10SM FEW017 FEW023 SCT028 33/25 A3002 RMK A01
KHHV 101655Z AUTO 12008KT 10SM SCT016 33/25 A3002 RMK A01
KHHV 101635Z AUTO 12007KT 10SM FEW016 33/26 A3002 RMK A01
KHHV 101615Z AUTO 12006KT 10SM FEW017 32/26 A3001 RMK A01
KHHV 101555Z AUTO 12007G12KT 10SM FEW018 31/25 A3001 RMK A01
KHHV 101535Z AUTO 13009G15KT FEW018 30/25 A3000 RMK A01
KHHV 101515Z AUTO 13008G15KT 100V170 10SM FEW016 30/25 A3000 RMK A01
KHHV 101455Z AUTO 13008G14KT 100V160 10SM CLR 30/25 A3000 RMK A01
KHHV 101435Z AUTO 14007G16KT 090V210 10SM CLR 30/25 A2999 RMK A01
KHHV 101415Z AUTO 13009G16KT 090V150 10SM FEW017 FEW021 30/25 A2999 RMK A01
KHHV 101355Z AUTO 13009G15KT 100V190 10SM FEW017 SCT022 30/25 A2999 RMK A01
KHHV 101335Z AUTO 12009G18KT 090V160 10SM FEW016 SCT090 29/25 A2999 RMK A01
KHHV 101315Z AUTO 12009G16KT 080V160 10SM FEW018 BKN090 29/25 A2998 RMK A01
KHHV 101255Z AUTO 12008G16KT 090V200 10SM FEW017 FEW041 BKN090 29/26 A2997 RMK A01
KHHV 101235Z AUTO 13009G17KT 10SM FEW015 29/25 A2997 RMK A01
KHHV 101215Z AUTO 13010G17KT 090V160 10SM FEW017 SCT090 29/25 A2996 RMK A01
KHHV 101155Z AUTO 14009G16KT 100V170 10SM FEW016 FEW090 29/25 A2995 RMK A01
KHHV 101135Z AUTO 13010G16KT 10SM FEW015 FEW024 29/26 A2994 RMK A01
KHHV 101115Z AUTO 13009G15KT 090V170 10SM FEW024 29/25 A2994 RMK A01
KHHV 101055Z AUTO 12008G16KT 090V180 10SM FEW016 29/26 A2993 RMK A01
KHHV 101035Z AUTO 14009G17KT 090V160 10SM FEW016 29/25 A2992 RMK A01
KHHV 101015Z AUTO 13008G18KT 10SM CLR 29/25 A2991 RMK A01
KHHV 100955Z AUTO 13009G18KT 10SM FEW017 FEW030 29/26 A2991 RMK A01
KHHV 100935Z AUTO 14008G19KT 100V220 10SM SCT017 SCT029 BKN040 29/26 A2990 RMK A01
KHHV 100915Z AUTO 14008G16KT 090V180 10SM SCT017 BKN024 BKN034 29/26 A2989 RMK A01
KHHV 100855Z AUTO 14011G16KT 10SM FEW016 SCT022 BKN035 29/26 A2989 RMK A01
KHHV 100835Z AUTO 13012KT 10SM FEW015 SCT020 BKN034 28/26 A2989 RMK A01
KHHV 100815Z AUTO 13010G18KT SCT017 SCT025 29/26 A2989 RMK A01
KHHV 100755Z AUTO 13012G19KT 9SM FEW015 FEW055 SCT085 28/26 A2989 RMK A01
KHHV 100735Z AUTO 14012G19KT 10SM SCT016 BKN039 OVC080 28/26 A2989 RMK A01
KHHV 100715Z AUTO 13011G18KT 7SM FEW016 SCT040 BKN080 29/26 A2990 RMK A01
KHHV 100655Z AUTO 13012G21KT 10SM FEW015 SCT046 BKN085 29/24 A2990 RMK A01
KHHV 100635Z AUTO 13008G17KT 080V150 9SM FEW018 SCT060 BKN080 29/26 A2990 RMK A01
KHHV 100615Z AUTO 13007G17KT 080V180 10SM FEW016 BKN075 29/25 A2990 RMK A01
KHHV 100555Z AUTO 13010G17KT 080V160 10SM FEW015 29/25 A2990 RMK A01
KHHV 100535Z AUTO 14009G17KT 110V180 10SM FEW017 29/25 A2990 RMK A01
KHHV 100515Z AUTO 13009G17KT 10SM CLR 29/25 A2991 RMK A01
KHHV 100455Z AUTO 13011G17KT 100V160 10SM FEW015 FEW022 SCT055 29/26 A2991 RMK A01
KHHV 100435Z AUTO 13011G19KT 9SM SCT015 SCT021 BKN049 29/25 A2990 RMK A01
KHHV 100415Z AUTO 14012KT 9SM BKN018 OVC050 29/26 A2990 RMK A01
KHHV 100355Z AUTO 14011G16KT 120V180 9SM BKN018 BKN023 OVC050 29/25 A2990 RMK A01
KHHV 100335Z AUTO 13009G15KT 100V160 9SM BKN018 BKN023 OVC049 29/25 A2989 RMK A01
KHHV 100315Z AUTO 14009G15KT 10SM BKN018 BKN023 BKN035 29/25 A2989 RMK A01
KHHV 100255Z AUTO 14011KT 9SM FEW017 29/25 A2988 RMK A01
KHHV 100235Z AUTO 15012KT 8SM CLR 29/26 A2987 RMK A01
KHHV 100215Z AUTO 15012G18KT 8SM FEW018 29/25 A2986 RMK A01
KHHV 100155Z AUTO 14011G16KT 9SM SCT017 29/25 A2985 RMK A01
KHHV 100135Z AUTO 15012KT 10SM FEW018 29/25 A2985 RMK A01
KHHV 100115Z AUTO 15013KT 10SM CLR 29/25 A2984 RMK A01
KHHV 100055Z AUTO 16012KT 9SM CLR 29/25 A2983 RMK A01
KHHV 100035Z AUTO 15013KT 9SM CLR 29/25 A2983 RMK A01
KHHV 100015Z AUTO 15010KT 9SM FEW019 29/25 A2983 RMK A01
KHHV 092355Z AUTO 15013KT 8SM FEW021 29/25 A2982 RMK A01
KHHV 092335Z AUTO 15013KT 9SM SCT020 29/25 A2982 RMK A01
KHHV 092315Z AUTO 16012KT 9SM FEW017 FEW022 29/25 A2982 RMK A01
KHHV 092255Z AUTO 15014KT 9SM FEW019 30/25 A2981 RMK A01
KHHV 092235Z AUTO 15015KT 9SM FEW021 FEW030 SCT039 30/25 A2981 RMK A01
KHHV 092215Z AUTO 15014G19KT 9SM FEW020 FEW026 SCT030 30/25 A2980 RMK A01
KHHV 092155Z AUTO 15016KT 8SM FEW020 SCT027 SCT040 30/25 A2980 RMK A01
KHHV 092135Z AUTO 16013G18KT 9SM FEW019 SCT027 BKN036 30/25 A2981 RMK A01
KHHV 092115Z AUTO 16012G18KT 9SM FEW021 FEW029 30/25 A2981 RMK A01
KHHV 092055Z AUTO 15012KT 10SM FEW020 31/25 A2981 RMK A01
KHHV 092035Z AUTO 16011KT 140V200 9SM FEW020 30/25 A2981 RMK A01
KHHV 092015Z AUTO 16008G14KT 10SM CLR 30/24 A2981 RMK A01
KHHV 091955Z AUTO 16008KT 9SM CLR 30/24 A2981 RMK A01
KHHV 091935Z AUTO 16009G15KT 9SM FEW018 31/24 A2981 RMK A01
KHHV 091915Z AUTO 15014KT 7SM CLR 31/25 A2981 RMK A01
KHHV 091855Z AUTO 14010G16KT 7SM FEW017 31/25 A2982 RMK A01
KHHV 091835Z AUTO 14012KT 8SM FEW020 31/25 A2983 RMK A01
KHHV 091815Z AUTO 14008G15KT 100V160 8SM FEW019 31/25 A2983 RMK A01
KHHV 091755Z AUTO 15009G16KT 9SM FEW018 31/25 A2984 RMK A01
KHHV 091735Z AUTO 15011KT 9SM CLR 31/25 A2985 RMK A01
KHHV 091715Z AUTO 15013KT CLR 31/25 A2985 RMK A01
KHHV 091655Z AUTO 16009G15KT 10SM CLR 30/24 A2985 RMK A01
KHHV 091635Z AUTO 16008G15KT 140V210 10SM CLR 30/24 A2986 RMK A01
KHHV 091615Z AUTO 16008G15KT 10SM CLR 30/24 A2985 RMK A01
KHHV 091555Z AUTO 16012G17KT 10SM CLR 30/24 A2985 RMK A01
KHHV 091535Z AUTO 15013KT 10SM CLR 29/24 A2985 RMK A01
KHHV 091515Z AUTO 16007G15KT 140V210 10SM CLR 29/24 A2985 RMK A01
KHHV 091455Z AUTO 16007G14KT 10SM CLR 29/24 A2985 RMK A01
KHHV 091435Z AUTO 17011KT 140V200 10SM FEW024 29/24 A2984 RMK A01
KHHV 091415Z AUTO 17009G16KT 10SM FEW020 29/24 A2984 RMK A01
KHHV 091355Z AUTO 16009G17KT 10SM CLR 29/24 A2983 RMK A01
KHHV 091335Z AUTO 18016KT 10SM CLR 29/24 A2983 RMK A01
KHHV 091315Z AUTO 17012G18KT 10SM CLR 29/24 A2982 RMK A01
KHHV 091255Z AUTO 18017KT 10SM CLR 29/24 A2981 RMK A01
KHHV 091235Z AUTO 18015KT 10SM CLR 28/24 A2980 RMK A01
KHHV 091215Z AUTO 20013KT 10SM CLR 29/23 A2980 RMK A01
KHHV 091155Z AUTO 19013G20KT 10SM CLR 28/24 A2980 RMK A01
KHHV 091135Z AUTO 19013KT 10SM FEW065 28/23 A2979 RMK A01
KHHV 091115Z AUTO 20011KT 10SM FEW022 SCT065 28/23 A2979 RMK A01
KHHV 091055Z AUTO VRB05G11KT 10SM FEW022 BKN065 29/24 A2979 RMK A01
KHHV 091035Z AUTO VRB05G14KT 10SM FEW065 29/24 A2978 RMK A01
KHHV 091015Z AUTO VRB06G12KT 10SM FEW022 SCT060 BKN070 29/23 A2978 RMK A01
KHHV 090955Z AUTO 22007G16KT 170V240 10SM FEW023 SCT034 BKN047 29/24 A2978 RMK A01
KHHV 090935Z AUTO VRB06G15KT 9SM FEW023 SCT032 BKN042 29/24 A2977 RMK A01
KHHV 090915Z AUTO 22008G17KT 180V240 10SM FEW020 FEW031 SCT041 28/24 A2977 RMK A01
KHHV 090855Z AUTO 22013KT 10SM FEW020 SCT044 BKN065 29/24 A2976 RMK A01
KHHV 090835Z AUTO VRB06G14KT 10SM FEW029 SCT045 SCT055 29/24 A2977 RMK A01
KHHV 090815Z AUTO 22008G15KT 160V250 10SM SCT018 SCT026 BKN046 28/24 A2977 RMK A01
KHHV 090755Z AUTO 20008G13KT 160V240 10SM SCT020 BKN028 28/25 A2977 RMK A01
KHHV 090735Z AUTO 20009KT 10SM FEW019 28/24 A2976 RMK A01
KHHV 090715Z AUTO 21008KT 190V260 10SM FEW019 28/24 A2977 RMK A01
KHHV 090655Z AUTO 19009KT 10SM FEW018 28/24 A2976 RMK A01
KHHV 090635Z AUTO 18011KT 10SM FEW017 28/25 A2976 RMK A01
KHHV 090615Z AUTO 18009KT 10SM CLR 28/24 A2976 RMK A01
KHHV 090555Z AUTO 21008KT 10SM CLR 28/24 A2976 RMK A01
KHHV 090535Z AUTO 20010KT 10SM SCT020 28/24 A2976 RMK A01
KHHV 090515Z AUTO 20008KT 10SM BKN019 BKN023 29/25 A2976 RMK A01
KHHV 090455Z AUTO 19008KT 10SM SCT020 SCT024 SCT033 29/25 A2976 RMK A01
KHHV 090435Z AUTO 20007KT 180V240 10SM FEW019 29/24 A2977 RMK A01
KHHV 090415Z AUTO 20007KT 180V240 10SM CLR 29/24 A2977 RMK A01
KHHV 090355Z AUTO VRB05G10KT 10SM CLR 29/24 A2976 RMK A01
KHHV 090335Z AUTO VRB06KT 170V250 10SM CLR 28/24 A2977 RMK A01
KHHV 090315Z AUTO 23006G11KT 10SM CLR 29/24 A2977 RMK A01
KHHV 090255Z AUTO VRB04KT 10SM CLR 29/24 A2977 RMK A01
KHHV 090235Z AUTO VRB05G10KT 10SM FEW038 FEW044 28/24 A2976 RMK A01
KHHV 090215Z AUTO VRB06KT 10SM CLR 28/24 A2975 RMK A01
KHHV 090155Z AUTO 19006KT 10SM CLR 28/24 A2975 RMK A01
KHHV 090135Z AUTO VRB06KT 10SM CLR 29/24 A2975 RMK A01
KHHV 090115Z AUTO 20005KT 10SM CLR 28/24 A2975 RMK A01
KHHV 090055Z AUTO 00000KT 10SM FEW020 28/24 A2974 RMK A01
KHHV 090035Z AUTO 23006KT 10SM FEW020 28/24 A2974 RMK A01
KHHV 090015Z AUTO 24008KT 10SM CLR 28/24 A2973 RMK A01
KHHV 082355Z AUTO 24008KT 10SM CLR 29/24 A2973 RMK A01
KHHV 082335Z AUTO 24007KT 10SM FEW020 SCT027 29/24 A2973 RMK A01
KHHV 082315Z AUTO VRB06KT 10SM BKN026 BKN033 BKN039 29/25 A2973 RMK A01
KHHV 082255Z AUTO 25003KT 7SM FEW025 SCT037 BKN049 28/24 A2973 RMK A01
KHHV 082235Z AUTO VRB04KT 9SM SCT025 BKN047 BKN055 29/24 A2972 RMK A01
KHHV 082215Z AUTO 28005KT 10SM SCT020 BKN028 BKN048 30/24 A2972 RMK A01
KHHV 082155Z AUTO 00000KT 10SM FEW019 31/24 A2972 RMK A01
KHHV 082135Z AUTO 24006KT 10SM CLR 31/25 A2972 RMK A01
KHHV 082115Z AUTO 00000KT 10SM FEW018 FEW024 31/25 A2972 RMK A01
KHHV 082055Z AUTO VRB04KT 10SM FEW019 SCT024 30/25 A2972 RMK A01
KHHV 082035Z AUTO 24005KT 10SM FEW020 30/24 A2972 RMK A01
KHHV 082015Z AUTO VRB04KT 10SM CLR 30/24 A2973 RMK A01
KHHV 081955Z AUTO 26004KT 10SM CLR 31/24 A2973 RMK A01
KHHV 081935Z AUTO 00000KT 10SM CLR 32/24 A2973 RMK A01
KHHV 081915Z AUTO 00000KT 10SM CLR 35/25 A2974 RMK A01
KHHV 081855Z AUTO 29004KT 10SM CLR 36/25 A2974 RMK A01
KHHV 081835Z AUTO 00000KT 10SM CLR 36/25 A2975 RMK A01
KHHV 081815Z AUTO 31003KT 10SM CLR 35/25 A2976 RMK A01
KHHV 081755Z AUTO 31003KT 10SM FEW019 FEW027 35/25 A2977 RMK A01
KHHV 081735Z AUTO 30004KT 10SM SCT018 SCT027 35/25 A2978 RMK A01
KHHV 081715Z AUTO 31004KT 10SM FEW017 35/25 A2979 RMK A01
KHHV 081655Z AUTO 31005KT 10SM FEW017 34/25 A2978 RMK A01
KHHV 081635Z AUTO 31005KT 10SM CLR 34/24 A2978 RMK A01
KHHV 081615Z AUTO 32005KT 10SM CLR 33/24 A2978 RMK A01
KHHV 081555Z AUTO 31005KT CLR 32/24 A2978 RMK A01
KHHV 081535Z AUTO 31006KT 10SM FEW017 FEW025 30/25 A2978 RMK A01
KHHV 081515Z AUTO 33005KT 10SM FEW018 30/25 A2977 RMK A01
KHHV 081455Z AUTO 34006KT 10SM FEW018 29/24 A2976 RMK A01
KHHV 081435Z AUTO 33006KT 10SM FEW016 SCT025 29/24 A2976 RMK A01
KHHV 081415Z AUTO 34007KT 10SM BKN017 BKN022 BKN029 29/25 A2975 RMK A01
KHHV 081355Z AUTO 34005KT 10SM FEW016 FEW029 29/25 A2975 RMK A01
KHHV 081335Z AUTO 32007KT 10SM FEW016 SCT022 BKN035 29/24 A2975 RMK A01
KHHV 081315Z AUTO 32007KT 10SM BKN015 BKN021 BKN028 29/25 A2974 RMK A01
KHHV 081255Z AUTO 33004KT 10SM BKN016 BKN021 28/25 A2974 RMK A01
KHHV 081235Z AUTO 32007KT 10SM FEW016 FEW023 28/25 A2974 RMK A01
KHHV 081215Z AUTO 32007KT 10SM CLR 28/25 A2973 RMK A01
KHHV 081155Z AUTO 31009KT 10SM SCT016 SCT023 SCT036 28/25 A2973 RMK A01
KHHV 081135Z AUTO 32007KT 10SM SCT016 BKN023 BKN036 29/25 A2972 RMK A01
KHHV 081115Z AUTO 32006KT 10SM SCT016 28/25 A2972 RMK A01
KHHV 081055Z AUTO 31006KT 10SM SCT016 BKN075 29/25 A2972 RMK A01
KHHV 081035Z AUTO 31006KT 10SM FEW016 SCT075 28/25 A2972 RMK A01
KHHV 081015Z AUTO 32006KT 10SM FEW014 SCT070 29/25 A2972 RMK A01
KHHV 080955Z AUTO 31004KT 10SM FEW014 BKN070 29/25 A2972 RMK A01
KHHV 080935Z AUTO 00000KT 10SM BKN065 BKN075 29/25 A2971 RMK A01
KHHV 080915Z AUTO 00000KT 10SM FEW038 SCT047 OVC060 28/25 A2972 RMK A01
KHHV 080855Z AUTO 00000KT 7SM SCT016 BKN038 OVC075 28/25 A2971 RMK A01
KHHV 080835Z AUTO 32004KT 10SM FEW015 BKN060 BKN075 29/25 A2971 RMK A01
KHHV 080815Z AUTO 34004KT OVC060 28/25 A2972 RMK A01
KHHV 080755Z AUTO 00000KT 10SM BKN060 28/25 A2972 RMK A01
KHHV 080735Z AUTO 00000KT 10SM FEW065 28/25 A2972 RMK A01
KHHV 080715Z AUTO 34004KT 10SM FEW014 FEW021 FEW042 28/25 A2972 RMK A01
KHHV 080655Z AUTO 35004KT 10SM FEW031 BKN042 28/25 A2972 RMK A01
KHHV 080635Z AUTO 00000KT 10SM FEW017 SCT032 SCT040 28/25 A2972 RMK A01
KHHV 080615Z AUTO 00000KT 10SM FEW017 SCT021 BKN033 28/25 A2973 RMK A01
KHHV 080555Z AUTO 00000KT 10SM OVC060 28/24 A2973 RMK A01
KHHV 080535Z AUTO 00000KT 10SM OVC065 27/25 A2973 RMK A01
KHHV 080515Z AUTO 05005KT 10SM SCT055 OVC065 27/25 A2973 RMK A01
KHHV 080455Z AUTO 07007KT 4SM BR FEW019 SCT024 OVC055 28/25 A2974 RMK A01
KHHV 080435Z AUTO 06011KT 10SM SCT019 BKN025 BKN055 28/25 A2974 RMK A01
KHHV 080415Z AUTO 01005KT 10SM FEW033 28/25 A2973 RMK A01
KHHV 080355Z AUTO 01004KT 10SM FEW015 SCT024 BKN033 27/25 A2973 RMK A01
KHHV 080335Z AUTO 02004G12KT 1 3/4SM HZ SCT011 BKN017 OVC023 28/25 A2973 RMK A01
KHHV 080315Z AUTO 03005KT 10SM SCT018 BKN024 BKN032 29/25 A2973 RMK A01
KHHV 080255Z AUTO 01005KT 8SM SCT016 BKN023 OVC044 29/25 A2972 RMK A01
KHHV 080235Z AUTO 03006KT 10SM SCT016 SCT024 BKN040 29/25 A2972 RMK A01
KHHV 080215Z AUTO 01004KT 10SM FEW015 FEW037 SCT055 29/25 A2972 RMK A01
KHHV 080155Z AUTO 36003KT 10SM FEW040 SCT060 29/25 A2971 RMK A01
KHHV 080135Z AUTO 01005KT 10SM FEW015 28/25 A2971 RMK A01
KHHV 080115Z AUTO 02005KT 10SM FEW015 29/25 A2970 RMK A01
KHHV 080055Z AUTO 03006KT 10SM CLR 29/25 A2969 RMK A01
KHHV 080035Z AUTO 03007KT 10SM CLR 29/25 A2969 RMK A01
KHHV 080015Z AUTO 04009KT 10SM CLR 29/25 A2967 RMK A01
KHHV 072355Z AUTO 03010KT 10SM FEW016 30/25 A2967 RMK A01
KHHV 072335Z AUTO 03010KT 10SM SCT017 SCT060 30/25 A2967 RMK A01
KHHV 072315Z AUTO 02008KT 10SM FEW019 FEW060 FEW080 29/24 A2967 RMK A01
KHHV 072255Z AUTO 02007KT 10SM SCT070 BKN080 29/25 A2966 RMK A01
KHHV 072235Z AUTO 01006KT 10SM SCT027 SCT050 OVC070 29/25 A2966 RMK A01
KHHV 072215Z AUTO 03009KT 10SM FEW021 BKN027 OVC034 31/25 A2966 RMK A01
KHHV 072155Z AUTO 04011KT 10SM FEW016 SCT021 BKN035 32/26 A2966 RMK A01
KHHV 072135Z AUTO 02010KT 10SM SCT014 SCT020 BKN030 30/25 A2966 RMK A01
KHHV 072115Z AUTO 36007KT 10SM SCT016 BKN027 30/25 A2966 RMK A01
KHHV 072055Z AUTO 01007KT 10SM FEW016 30/25 A2966 RMK A01
KHHV 072035Z AUTO 36006KT 9SM FEW055 30/25 A2966 RMK A01
KHHV 072015Z AUTO 01006KT 9SM BKN055 30/25 A2967 RMK A01
KHHV 071955Z AUTO 02008KT 10SM SCT016 OVC055 31/25 A2968 RMK A01
KHHV 071935Z AUTO 02009KT 10SM BKN015 BKN041 BKN055 32/25 A2968 RMK A01
KHHV 071915Z AUTO 03009KT 9SM SCT015 SCT020 SCT041 32/25 A2968 RMK A01
KHHV 071855Z AUTO 02007KT 10SM CLR 33/25 A2969 RMK A01
KHHV 071835Z AUTO 02009KT 10SM FEW016 FEW023 FEW028 33/25 A2970 RMK A01
KHHV 071815Z AUTO 03009KT 10SM SCT017 SCT023 34/25 A2971 RMK A01
KHHV 071755Z AUTO 05010KT 10SM FEW015 FEW023 35/25 A2971 RMK A01
KHHV 071735Z AUTO 05012KT 10SM SCT016 BKN023 35/25 A2971 RMK A01
KHHV 071715Z AUTO 06012KT SCT016 34/25 A2971 RMK A01
KHHV 071655Z AUTO 05014KT 10SM SCT015 SCT024 33/25 A2971 RMK A01
KHHV 071635Z AUTO 05014KT 9SM SCT015 BKN021 33/25 A2971 RMK A01
KHHV 071615Z AUTO 06014KT 9SM BKN017 BKN024 32/25 A2972 RMK A01
KHHV 071555Z AUTO 05011KT 9SM SCT016 33/25 A2972 RMK A01
KHHV 071535Z AUTO 06011KT 9SM FEW015 32/25 A2972 RMK A01
KHHV 071515Z AUTO 06012KT 10SM FEW015 31/25 A2972 RMK A01
KHHV 071455Z AUTO 06013KT 10SM FEW015 31/25 A2972 RMK A01
KHHV 071435Z AUTO 06014KT 10SM CLR 30/25 A2971 RMK A01
KHHV 071415Z AUTO 07012KT 10SM CLR 30/25 A2971 RMK A01
KHHV 071355Z AUTO 07013KT 10SM CLR 30/25 A2971 RMK A01
KHHV 071335Z AUTO 06012KT 10SM FEW015 FEW023 FEW030 30/25 A2970 RMK A01
KHHV 071315Z AUTO 07011KT 10SM CLR 30/25 A2969 RMK A01
KHHV 071255Z AUTO 08013KT 10SM CLR 30/25 A2968 RMK A01
KHHV 071235Z AUTO 06011KT 10SM CLR 29/25 A2968 RMK A01
KHHV 071215Z AUTO 07011KT 10SM CLR 30/25 A2968 RMK A01
KHHV 071155Z AUTO 08012KT 10SM CLR 30/25 A2968 RMK A01
KHHV 071135Z AUTO 07011KT 10SM CLR 30/25 A2969 RMK A01
KHHV 071115Z AUTO 08010KT 10SM CLR 30/25 A2969 RMK A01
KHHV 071055Z AUTO 08011KT 10SM FEW017 31/25 A2969 RMK A01
KHHV 071035Z AUTO 08010KT 10SM FEW017 31/25 A2969 RMK A01
KHHV 071015Z AUTO 09013KT 10SM FEW017 31/25 A2968 RMK A01
KHHV 070955Z AUTO 10013KT 10SM CLR 30/24 A2967 RMK A01
KHHV 070935Z AUTO 09012KT 10SM FEW025 FEW030 30/24 A2968 RMK A01
KHHV 070915Z AUTO 10016KT 10SM SCT028 30/24 A2968 RMK A01
KHHV 070855Z AUTO 10016KT 10SM CLR 30/24 A2968 RMK A01
KHHV 070835Z AUTO 09014KT 10SM CLR 30/24 A2968 RMK A01
KHHV 070815Z AUTO 10015KT 10SM FEW026 30/24 A2969 RMK A01
KHHV 070755Z AUTO 09014KT 10SM FEW022 30/25 A2969 RMK A01
KHHV 070735Z AUTO 08014KT 10SM FEW024 FEW033 FEW040 30/25 A2969 RMK A01
KHHV 070715Z AUTO 09015KT 10SM FEW018 SCT023 BKN035 29/25 A2971 RMK A01
KHHV 070655Z AUTO 08014KT 10SM FEW018 SCT033 BKN042 29/25 A2972 RMK A01
KHHV 070635Z AUTO 07013KT 10SM FEW018 SCT031 BKN043 28/25 A2972 RMK A01
KHHV 070615Z AUTO 06013KT 9SM FEW019 FEW030 SCT041 29/25 A2973 RMK A01
KHHV 070555Z AUTO 05015KT 9SM FEW043 SCT065 BKN080 28/26 A2972 RMK A01
KHHV 070535Z AUTO 06015KT 10SM FEW018 FEW038 BKN047 28/26 A2973 RMK A01
KHHV 070515Z AUTO 06017KT 10SM FEW016 FEW021 FEW039 28/26 A2974 RMK A01
KHHV 070455Z AUTO 06020KT 10SM FEW016 SCT020 BKN033 27/26 A2975 RMK A01
KHHV 070435Z AUTO 03018KT 4SM BR FEW013 BKN021 OVC065 27/25 A2976 RMK A01
KHHV 070415Z AUTO 04021KT 9SM SCT016 BKN021 OVC027 27/26 A2977 RMK A01
KHHV 070355Z AUTO 02007G13KT 5SM BR FEW016 BKN021 OVC045 26/25 A2978 RMK A01
KHHV 070335Z AUTO 02009KT 3SM BR FEW005 SCT022 BKN030 26/25 A2979 RMK A01
KHHV 070305Z AUTO 04020KT 10SM SCT022 BKN027 OVC046 28/23 A2979 RMK A01
KHHV 070255Z AUTO 03015G20KT 10SM SCT023 BKN030 OVC047 28/23 A2978 RMK A01
KHHV 070235Z AUTO 03014KT 10SM SCT023 BKN029 OVC046 28/23 A2978 RMK A01
KHHV 070215Z AUTO 04016KT 10SM SCT023 SCT029 OVC045 29/23 A2978 RMK A01
KHHV 070155Z AUTO 04018KT 10SM SCT025 BKN032 29/22 A2978 RMK A01
KHHV 070135Z AUTO 04017KT 10SM FEW023 FEW028 BKN035 29/22 A2979 RMK A01
KHHV 070115Z AUTO 04016KT 10SM SCT026 SCT031 BKN037 29/22 A2979 RMK A01
KHHV 070055Z AUTO 04018KT 10SM FEW027 SCT032 29/22 A2979 RMK A01
KHHV 070035Z AUTO 04019KT 10SM FEW027 FEW035 29/22 A2978 RMK A01
KHHV 070015Z AUTO 05018KT 10SM SCT028 SCT035 SCT043 29/22 A2978 RMK A01
KHHV 062355Z AUTO 04018KT 10SM FEW028 SCT034 SCT042 30/22 A2979 RMK A01
KHHV 062335Z AUTO 04018KT 10SM FEW033 31/22 A2979 RMK A01
KHHV 062315Z AUTO 04015KT 10SM CLR 31/21 A2980 RMK A01
KHHV 062255Z AUTO 05019KT 10SM FEW030 FEW035 FEW041 31/21 A2980 RMK A01
KHHV 062235Z AUTO 05018KT 10SM SCT030 SCT035 32/21 A2980 RMK A01
KHHV 062215Z AUTO 05017KT 10SM FEW029 FEW036 SCT042 32/21 A2981 RMK A01
KHHV 062155Z AUTO 05017KT 10SM SCT030 SCT035 SCT042 32/22 A2981 RMK A01
KHHV 062135Z AUTO 05018KT 9SM FEW031 32/21 A2982 RMK A01
KHHV 062115Z AUTO 05016KT 10SM FEW030 32/21 A2983 RMK A01
KHHV 062055Z AUTO 06018KT 9SM FEW030 33/21 A2983 RMK A01
KHHV 062035Z AUTO 05017KT 10SM FEW031 31/20 A2983 RMK A01
KHHV 062015Z AUTO 05019KT 5SM HZ SCT032 SCT041 31/20 A2984 RMK A01
KHHV 061955Z AUTO 06018KT 7SM SCT031 SCT040 32/21 A2985 RMK A01
KHHV 061935Z AUTO 05016KT 7SM FEW029 SCT036 BKN043 33/21 A2986 RMK A01
KHHV 061915Z AUTO 05018KT 5SM HZ FEW030 FEW034 SCT040 33/21 A2987 RMK A01
KHHV 061855Z AUTO 06013KT 4SM HZ CLR 34/20 A2988 RMK A01
KHHV 061835Z AUTO 05012KT 4SM HZ CLR 34/20 A2989 RMK A01
KHHV 061815Z AUTO 05013KT 10SM FEW036 FEW044 34/20 A2990 RMK A01
KHHV 061755Z AUTO 07014KT 9SM FEW037 FEW044 33/20 A2991 RMK A01
KHHV 061735Z AUTO 07013KT 10SM FEW038 33/19 A2992 RMK A01
KHHV 061715Z AUTO 06013KT 10SM CLR 33/19 A2993 RMK A01
KHHV 061655Z AUTO 06012KT 10SM CLR 33/19 A2993 RMK A01
KHHV 061635Z AUTO 06012KT 10SM FEW036 33/20 A2994 RMK A01
KHHV 061615Z AUTO 07012KT FEW036 32/19 A2994 RMK A01
KHHV 061555Z AUTO 05013KT 6SM HZ FEW032 32/19 A2994 RMK A01
KHHV 061535Z AUTO 06013KT 4SM HZ SCT033 SCT040 31/20 A2994 RMK A01
KHHV 061515Z AUTO 07011KT 7SM SCT034 29/20 A2994 RMK A01
KHHV 061455Z AUTO 05011KT 6SM HZ CLR 29/19 A2994 RMK A01
KHHV 061435Z AUTO 07011KT 6SM HZ FEW035 29/19 A2994 RMK A01
KHHV 061415Z AUTO 07014KT 6SM HZ CLR 29/20 A2994 RMK A01
KHHV 061355Z AUTO 07014KT 5SM HZ CLR 29/19 A2994 RMK A01
KHHV 061335Z AUTO 07014KT 9SM FEW035 28/19 A2993 RMK A01
KHHV 061315Z AUTO 07014KT 6SM HZ CLR 28/19 A2993 RMK A01
KHHV 061255Z AUTO 08017KT 10SM FEW030 28/20 A2993 RMK A01
KHHV 061235Z AUTO 06015KT 10SM SCT029 SCT034 28/21 A2993 RMK A01
KHHV 061215Z AUTO 07013KT 10SM SCT031 SCT055 28/20 A2993 RMK A01
KHHV 061155Z AUTO 07014KT 10SM SCT031 SCT055 28/20 A2993 RMK A01
KHHV 061135Z AUTO 07016KT 10SM SCT033 SCT045 SCT055 28/20 A2993 RMK A01
KHHV 061115Z AUTO 08018KT 10SM FEW031 FEW040 28/20 A2993 RMK A01
KHHV 061055Z AUTO 07016KT 10SM CLR 28/19 A2993 RMK A01
KHHV 061035Z AUTO 08015KT 10SM FEW037 29/19 A2993 RMK A01
KHHV 061015Z AUTO 08017KT 10SM SCT036 28/20 A2993 RMK A01
KHHV 060955Z AUTO 08019KT 10SM FEW035 SCT041 29/20 A2993 RMK A01
KHHV 060935Z AUTO 08019KT 10SM SCT034 BKN041 29/20 A2993 RMK A01
KHHV 060915Z AUTO 08019G25KT 10SM BKN034 OVC042 29/21 A2993 RMK A01
KHHV 060855Z AUTO 09021KT 10SM SCT034 BKN044 29/21 A2993 RMK A01
KHHV 060835Z AUTO 09021KT 10SM FEW031 BKN042 29/21 A2993 RMK A01
KHHV 060815Z AUTO 08021KT 10SM SCT032 SCT039 BKN046 29/21 A2994 RMK A01
KHHV 060755Z AUTO 09022KT 10SM SCT035 BKN042 29/21 A2994 RMK A01
KHHV 060735Z AUTO 08021G26KT 10SM SCT034 BKN041 BKN049 29/21 A2995 RMK A01
KHHV 060715Z AUTO 08022KT 10SM FEW033 BKN039 BKN049 29/21 A2995 RMK A01
KHHV 060655Z AUTO 08023KT 10SM SCT033 SCT039 BKN047 29/21 A2996 RMK A01
KHHV 060635Z AUTO 08026KT 10SM SCT034 SCT045 OVC075 29/20 A2996 RMK A01
KHHV 060615Z AUTO 08024KT 10SM FEW030 SCT034 OVC080 29/20 A2997 RMK A01
KHHV 060555Z AUTO 08025KT 10SM SCT030 SCT035 BKN044 29/21 A2997 RMK A01
KHHV 060535Z AUTO 08025KT 10SM FEW032 SCT045 BKN080 29/21 A2997 RMK A01
KHHV 060515Z AUTO 09025KT 10SM FEW049 SCT060 BKN075 29/21 A2997 RMK A01
KHHV 060455Z AUTO 08027KT 10SM FEW028 BKN060 OVC070 29/22 A2997 RMK A01
KHHV 060435Z AUTO 09027KT 10SM FEW027 BKN060 OVC075 29/22 A2997 RMK A01
KHHV 060415Z AUTO 09026KT 10SM SCT027 BKN050 OVC060 29/22 A2998 RMK A01
KHHV 060355Z AUTO 08025KT 9SM FEW026 SCT032 OVC050 27/23 A2998 RMK A01
KHHV 060335Z AUTO 12017G26KT 3SM HZ BKN026 BKN033 OVC060 27/23 A2999 RMK A01
KHHV 060315Z AUTO 10022G29KT 6SM HZ FEW024 SCT033 BKN050 28/22 A2999 RMK A01
KHHV 060255Z AUTO 09019KT 10SM BKN050 BKN060 OVC080 30/23 A2999 RMK A01
KHHV 060235Z AUTO 08019KT 10SM SCT060 OVC075 30/23 A2998 RMK A01
KHHV 060215Z AUTO 07015KT 10SM BKN060 OVC075 29/22 A2997 RMK A01
KHHV 060155Z AUTO 09020G26KT 10SM FEW023 BKN065 OVC075 29/22 A2997 RMK A01
KHHV 060135Z AUTO 09024G29KT 10SM FEW020 SCT050 OVC065 29/23 A2996 RMK A01
KHHV 060115Z AUTO 08020KT 10SM SCT065 OVC085 29/23 A2996 RMK A01